Wetterdaten: Sonntag, 23.03.2014
Datum Zeit Temp. Aussen +5cm Feuchte Auss Luftdruck Regen Sonnenschein Regendauer UV Solar Windben
23.03.2014 00:00 4,5 C 2,8 C 95 % 1003,8 hPa 0,0 l/m 0 min 0 min 0,0 UV-I 0 W/m 0,0 km/h (0 Bft)
23.03.2014 00:02 4,5 C 2,8 C 94 % 1003,7 hPa 0,0 l/m 0 min 0 min 0,0 UV-I 0 W/m 0,0 km/h (0 Bft)
23.03.2014 00:06 4,4 C 2,8 C 94 % 1003,7 hPa 0,0 l/m 0 min 0 min 0,0 UV-I 0 W/m 0,0 km/h (0 Bft)
23.03.2014 00:08 4,4 C 2,8 C 94 % 1003,8 hPa 0,0 l/m 0 min 0 min 0,0 UV-I 0 W/m 0,0 km/h (0 Bft)
23.03.2014 00:10 4,4 C 2,8 C 94 % 1003,8 hPa 0,0 l/m 0 min 0 min 0,0 UV-I 0 W/m 0,0 km/h (0 Bft)
23.03.2014 00:12 4,4 C 2,8 C 94 % 1003,8 hPa 0,0 l/m 0 min 0 min 0,0 UV-I 0 W/m 0,0 km/h (0 Bft)
23.03.2014 00:14 4,4 C 2,8 C 94 % 1003,8 hPa 0,0 l/m 0 min 0 min 0,0 UV-I 0 W/m 0,0 km/h (0 Bft)
23.03.2014 00:16 4,4 C 2,8 C 94 % 1003,8 hPa 0,0 l/m 0 min 0 min 0,0 UV-I 0 W/m 7,7 km/h (2 Bft)
23.03.2014 00:18 4,4 C 2,8 C 94 % 1003,8 hPa 0,0 l/m 0 min 0 min 0,0 UV-I 0 W/m 0,0 km/h (0 Bft)
23.03.2014 00:20 4,4 C 2,8 C 93 % 1003,8 hPa 0,0 l/m 0 min 0 min 0,0 UV-I 0 W/m 0,0 km/h (0 Bft)
23.03.2014 00:22 4,4 C 2,8 C 93 % 1003,8 hPa 0,0 l/m 0 min 0 min 0,0 UV-I 0 W/m 0,0 km/h (0 Bft)
23.03.2014 00:24 4,3 C 2,8 C 93 % 1003,8 hPa 0,0 l/m 0 min 0 min 0,0 UV-I 0 W/m 0,0 km/h (0 Bft)
23.03.2014 00:26 4,3 C 2,8 C 93 % 1003,8 hPa 0,0 l/m 0 min 0 min 0,0 UV-I 0 W/m 5,1 km/h (1 Bft)
23.03.2014 00:28 4,3 C 2,8 C 93 % 1003,8 hPa 0,0 l/m 0 min 0 min 0,0 UV-I 0 W/m 5,1 km/h (1 Bft)
23.03.2014 00:30 4,3 C 2,8 C 93 % 1003,8 hPa 0,0 l/m 0 min 0 min 0,0 UV-I 0 W/m 0,0 km/h (0 Bft)
23.03.2014 00:32 4,3 C 2,2 C 92 % 1003,8 hPa 0,0 l/m 0 min 0 min 0,0 UV-I 0 W/m 0,0 km/h (0 Bft)
23.03.2014 00:34 4,3 C 2,2 C 92 % 1003,8 hPa 0,0 l/m 0 min 0 min 0,0 UV-I 0 W/m 0,0 km/h (0 Bft)
23.03.2014 00:36 4,3 C 2,2 C 92 % 1003,7 hPa 0,0 l/m 0 min 0 min 0,0 UV-I 0 W/m 0,0 km/h (0 Bft)
23.03.2014 00:38 4,3 C 2,2 C 92 % 1003,7 hPa 0,0 l/m 0 min 0 min 0,0 UV-I 0 W/m 2,6 km/h (1 Bft)
23.03.2014 00:40 4,3 C 2,2 C 92 % 1003,7 hPa 0,0 l/m 0 min 0 min 0,0 UV-I 0 W/m 0,0 km/h (0 Bft)
23.03.2014 00:42 4,3 C 2,2 C 92 % 1003,6 hPa 0,0 l/m 0 min 0 min 0,0 UV-I 0 W/m 0,0 km/h (0 Bft)
23.03.2014 00:44 4,3 C 2,2 C 92 % 1003,6 hPa 0,0 l/m 0 min 0 min 0,0 UV-I 0 W/m 0,0 km/h (0 Bft)
23.03.2014 00:46 4,3 C 2,2 C 92 % 1003,6 hPa 0,0 l/m 0 min 0 min 0,0 UV-I 0 W/m 0,0 km/h (0 Bft)
23.03.2014 00:48 4,3 C 2,2 C 92 % 1003,6 hPa 0,0 l/m 0 min 0 min 0,0 UV-I 0 W/m 5,1 km/h (1 Bft)
23.03.2014 00:50 4,2 C 2,2 C 92 % 1003,5 hPa 0,0 l/m 0 min 0 min 0,0 UV-I 0 W/m 0,0 km/h (0 Bft)
23.03.2014 00:52 4,3 C 2,2 C 92 % 1003,5 hPa 0,0 l/m 0 min 0 min 0,0 UV-I 0 W/m 10,3 km/h (2 Bft)
23.03.2014 00:54 4,3 C 2,2 C 92 % 1003,5 hPa 0,0 l/m 0 min 0 min 0,0 UV-I 0 W/m 12,9 km/h (3 Bft)
23.03.2014 00:56 4,3 C 2,8 C 92 % 1003,5 hPa 0,0 l/m 0 min 0 min 0,0 UV-I 0 W/m 0,0 km/h (0 Bft)
23.03.2014 00:58 4,3 C 2,2 C 92 % 1003,5 hPa 0,0 l/m 0 min 0 min 0,0 UV-I 0 W/m 5,1 km/h (1 Bft)
23.03.2014 01:00 4,3 C 2,2 C 91 % 1003,5 hPa 0,0 l/m 0 min 0 min 0,0 UV-I 0 W/m 0,0 km/h (0 Bft)
23.03.2014 01:03 4,3 C 2,2 C 91 % 1003,4 hPa 0,0 l/m 0 min 0 min 0,0 UV-I 0 W/m 7,7 km/h (2 Bft)
23.03.2014 01:04 4,3 C 2,2 C 91 % 1003,4 hPa 0,0 l/m 0 min 0 min 0,0 UV-I 0 W/m 0,0 km/h (0 Bft)
23.03.2014 01:06 4,3 C 2,2 C 91 % 1003,5 hPa 0,0 l/m 0 min 0 min 0,0 UV-I 0 W/m 5,1 km/h (1 Bft)
23.03.2014 01:08 4,3 C 2,2 C 91 % 1003,5 hPa 0,0 l/m 0 min 0 min 0,0 UV-I 0 W/m 7,7 km/h (2 Bft)
23.03.2014 01:10 4,2 C 2,2 C 91 % 1003,5 hPa 0,0 l/m 0 min 0 min 0,0 UV-I 0 W/m 2,6 km/h (1 Bft)
23.03.2014 01:12 4,2 C 2,2 C 91 % 1003,6 hPa 0,0 l/m 0 min 0 min 0,0 UV-I 0 W/m 7,7 km/h (2 Bft)
23.03.2014 01:14 4,2 C 2,2 C 91 % 1003,6 hPa 0,0 l/m 0 min 0 min 0,0 UV-I 0 W/m 0,0 km/h (0 Bft)
23.03.2014 01:16 4,2 C 2,2 C 91 % 1003,5 hPa 0,0 l/m 0 min 0 min 0,0 UV-I 0 W/m 0,0 km/h (0 Bft)
23.03.2014 01:18 4,2 C 2,2 C 91 % 1003,5 hPa 0,0 l/m 0 min 0 min 0,0 UV-I 0 W/m 2,6 km/h (1 Bft)
23.03.2014 01:20 4,2 C 2,2 C 91 % 1003,6 hPa 0,0 l/m 0 min 0 min 0,0 UV-I 0 W/m 15,4 km/h (3 Bft)
23.03.2014 01:22 4,2 C 2,2 C 91 % 1003,5 hPa 0,0 l/m 0 min 0 min 0,0 UV-I 0 W/m 2,6 km/h (1 Bft)
23.03.2014 01:24 4,1 C 2,2 C 92 % 1003,6 hPa 0,0 l/m 0 min 0 min 0,0 UV-I 0 W/m 7,7 km/h (2 Bft)
23.03.2014 01:26 4,1 C 2,2 C 91 % 1003,6 hPa 0,0 l/m 0 min 0 min 0,0 UV-I 0 W/m 0,0 km/h (0 Bft)
23.03.2014 01:28 4,1 C 2,2 C 91 % 1003,6 hPa 0,0 l/m 0 min 0 min 0,0 UV-I 0 W/m 5,1 km/h (1 Bft)
23.03.2014 01:30 4,1 C 2,2 C 92 % 1003,6 hPa 0,0 l/m 0 min 0 min 0,0 UV-I 0 W/m 0,0 km/h (0 Bft)
23.03.2014 01:32 4,1 C 2,2 C 92 % 1003,6 hPa 0,0 l/m 0 min 0 min 0,0 UV-I 0 W/m 0,0 km/h (0 Bft)
23.03.2014 01:34 4,0 C 2,2 C 92 % 1003,6 hPa 0,0 l/m 0 min 0 min 0,0 UV-I 0 W/m 10,3 km/h (2 Bft)
23.03.2014 01:36 4,0 C 2,2 C 92 % 1003,6 hPa 0,0 l/m 0 min 0 min 0,0 UV-I 0 W/m 5,1 km/h (1 Bft)
23.03.2014 01:38 4,0 C 2,2 C 92 % 1003,6 hPa 0,0 l/m 0 min 0 min 0,0 UV-I 0 W/m 5,1 km/h (1 Bft)
23.03.2014 01:40 4,0 C 2,2 C 92 % 1003,7 hPa 0,0 l/m 0 min 0 min 0,0 UV-I 0 W/m 2,6 km/h (1 Bft)
23.03.2014 01:42 4,0 C 2,2 C 92 % 1003,7 hPa 0,0 l/m 0 min 0 min 0,0 UV-I 0 W/m 2,6 km/h (1 Bft)
23.03.2014 01:44 3,9 C 2,2 C 92 % 1003,7 hPa 0,0 l/m 0 min 0 min 0,0 UV-I 0 W/m 2,6 km/h (1 Bft)
23.03.2014 01:46 3,9 C 2,2 C 92 % 1003,6 hPa 0,0 l/m 0 min 0 min 0,0 UV-I 0 W/m 7,7 km/h (2 Bft)
23.03.2014 01:48 3,9 C 2,2 C 92 % 1003,7 hPa 0,0 l/m 0 min 0 min 0,0 UV-I 0 W/m 2,6 km/h (1 Bft)
23.03.2014 01:50 3,9 C 2,2 C 92 % 1003,7 hPa 0,0 l/m 0 min 0 min 0,0 UV-I 0 W/m 10,3 km/h (2 Bft)
23.03.2014 01:52 3,9 C 2,2 C 92 % 1003,7 hPa 0,0 l/m 0 min 0 min 0,0 UV-I 0 W/m 10,3 km/h (2 Bft)
23.03.2014 01:54 4,0 C 2,8 C 92 % 1003,7 hPa 0,0 l/m 0 min 0 min 0,0 UV-I 0 W/m 0,0 km/h (0 Bft)
23.03.2014 01:56 4,0 C 2,2 C 92 % 1003,7 hPa 0,0 l/m 0 min 0 min 0,0 UV-I 0 W/m 5,1 km/h (1 Bft)
23.03.2014 01:58 4,0 C 2,8 C 92 % 1003,6 hPa 0,0 l/m 0 min 0 min 0,0 UV-I 0 W/m 10,3 km/h (2 Bft)
23.03.2014 02:00 4,0 C 2,8 C 92 % 1003,6 hPa 0,0 l/m 0 min 0 min 0,0 UV-I 0 W/m 2,6 km/h (1 Bft)
23.03.2014 02:02 4,0 C 2,2 C 92 % 1003,6 hPa 0,0 l/m 0 min 0 min 0,0 UV-I 0 W/m 0,0 km/h (0 Bft)
23.03.2014 02:06 4,0 C 2,2 C 92 % 1003,7 hPa 0,0 l/m 0 min 0 min 0,0 UV-I 0 W/m 2,6 km/h (1 Bft)
23.03.2014 02:08 4,0 C 2,2 C 92 % 1003,7 hPa 0,0 l/m 0 min 0 min 0,0 UV-I 0 W/m 0,0 km/h (0 Bft)
23.03.2014 02:10 4,0 C 2,8 C 92 % 1003,7 hPa 0,0 l/m 0 min 0 min 0,0 UV-I 0 W/m 7,7 km/h (2 Bft)
23.03.2014 02:12 4,0 C 2,2 C 92 % 1003,7 hPa 0,0 l/m 0 min 0 min 0,0 UV-I 0 W/m 0,0 km/h (0 Bft)
23.03.2014 02:14 4,0 C 2,2 C 92 % 1003,6 hPa 0,0 l/m 0 min 0 min 0,0 UV-I 0 W/m 10,3 km/h (2 Bft)
23.03.2014 02:16 4,0 C 2,2 C 92 % 1003,7 hPa 0,0 l/m 0 min 0 min 0,0 UV-I 0 W/m 0,0 km/h (0 Bft)
23.03.2014 02:18 4,0 C 2,8 C 92 % 1003,6 hPa 0,0 l/m 0 min 0 min 0,0 UV-I 0 W/m 0,0 km/h (0 Bft)
23.03.2014 02:20 4,0 C 2,8 C 92 % 1003,6 hPa 0,0 l/m 0 min 0 min 0,0 UV-I 0 W/m 10,3 km/h (2 Bft)
23.03.2014 02:22 4,0 C 2,8 C 92 % 1003,6 hPa 0,0 l/m 0 min 0 min 0,0 UV-I 0 W/m 0,0 km/h (0 Bft)
23.03.2014 02:24 4,0 C 2,8 C 92 % 1003,6 hPa 0,0 l/m 0 min 0 min 0,0 UV-I 0 W/m 0,0 km/h (0 Bft)
23.03.2014 02:26 4,0 C 2,8 C 91 % 1003,6 hPa 0,0 l/m 0 min 0 min 0,0 UV-I 0 W/m 0,0 km/h (0 Bft)
23.03.2014 02:28 4,0 C 2,8 C 91 % 1003,5 hPa 0,0 l/m 0 min 0 min 0,0 UV-I 0 W/m 5,1 km/h (1 Bft)
23.03.2014 02:30 4,0 C 2,8 C 91 % 1003,6 hPa 0,0 l/m 0 min 0 min 0,0 UV-I 0 W/m 15,4 km/h (3 Bft)
23.03.2014 02:32 4,0 C 2,8 C 91 % 1003,5 hPa 0,0 l/m 0 min 0 min 0,0 UV-I 0 W/m 10,3 km/h (2 Bft)
23.03.2014 02:34 4,0 C 2,8 C 91 % 1003,5 hPa 0,0 l/m 0 min 0 min 0,0 UV-I 0 W/m 15,4 km/h (3 Bft)
23.03.2014 02:36 4,1 C 2,8 C 91 % 1003,5 hPa 0,0 l/m 0 min 0 min 0,0 UV-I 0 W/m 10,3 km/h (2 Bft)
23.03.2014 02:38 4,1 C 2,8 C 91 % 1003,5 hPa 0,0 l/m 0 min 0 min 0,0 UV-I 0 W/m 0,0 km/h (0 Bft)
23.03.2014 02:40 4,1 C 2,8 C 91 % 1003,5 hPa 0,0 l/m 0 min 0 min 0,0 UV-I 0 W/m 10,3 km/h (2 Bft)
23.03.2014 02:42 4,1 C 2,8 C 91 % 1003,5 hPa 0,0 l/m 0 min 0 min 0,0 UV-I 0 W/m 20,6 km/h (4 Bft)
23.03.2014 02:44 4,1 C 2,8 C 91 % 1003,5 hPa 0,0 l/m 0 min 0 min 0,0 UV-I 0 W/m 15,4 km/h (3 Bft)
23.03.2014 02:46 4,1 C 2,8 C 91 % 1003,4 hPa 0,0 l/m 0 min 0 min 0,0 UV-I 0 W/m 12,9 km/h (3 Bft)
23.03.2014 02:48 4,1 C 2,8 C 91 % 1003,3 hPa 0,0 l/m 0 min 0 min 0,0 UV-I 0 W/m 12,9 km/h (3 Bft)
23.03.2014 02:50 4,1 C 2,8 C 91 % 1003,3 hPa 0,0 l/m 0 min 0 min 0,0 UV-I 0 W/m 5,1 km/h (1 Bft)
23.03.2014 02:52 4,2 C 2,8 C 91 % 1003,3 hPa 0,0 l/m 0 min 0 min 0,0 UV-I 0 W/m 18,0 km/h (3 Bft)
23.03.2014 02:54 4,2 C 2,8 C 91 % 1003,3 hPa 0,0 l/m 0 min 0 min 0,0 UV-I 0 W/m 7,7 km/h (2 Bft)
23.03.2014 02:56 4,2 C 2,8 C 91 % 1003,3 hPa 0,0 l/m 0 min 0 min 0,0 UV-I 0 W/m 10,3 km/h (2 Bft)
23.03.2014 02:58 4,2 C 2,8 C 91 % 1003,3 hPa 0,0 l/m 0 min 0 min 0,0 UV-I 0 W/m 18,0 km/h (3 Bft)
23.03.2014 03:00 4,2 C 2,8 C 90 % 1003,3 hPa 0,0 l/m 0 min 0 min 0,0 UV-I 0 W/m 15,4 km/h (3 Bft)
23.03.2014 03:02 4,2 C 2,8 C 90 % 1003,3 hPa 0,0 l/m 0 min 0 min 0,0 UV-I 0 W/m 15,4 km/h (3 Bft)
23.03.2014 03:06 4,2 C 2,8 C 95 % 1003,2 hPa 0,0 l/m 0 min 0 min 0,0 UV-I 0 W/m 7,7 km/h (2 Bft)
23.03.2014 03:08 4,2 C 2,8 C 90 % 1003,2 hPa 0,0 l/m 0 min 0 min 0,0 UV-I 0 W/m 10,3 km/h (2 Bft)
23.03.2014 03:10 4,2 C 2,8 C 95 % 1003,1 hPa 0,0 l/m 0 min 0 min 0,0 UV-I 0 W/m 7,7 km/h (2 Bft)
23.03.2014 03:12 4,2 C 2,8 C 95 % 1003,2 hPa 0,0 l/m 0 min 0 min 0,0 UV-I 0 W/m 15,4 km/h (3 Bft)
23.03.2014 03:14 4,2 C 2,8 C 91 % 1003,1 hPa 0,0 l/m 0 min 0 min 0,0 UV-I 0 W/m 7,7 km/h (2 Bft)
23.03.2014 03:16 4,2 C 2,8 C 91 % 1003,1 hPa 0,0 l/m 0 min 0 min 0,0 UV-I 0 W/m 2,6 km/h (1 Bft)
23.03.2014 03:18 4,2 C 2,8 C 90 % 1003,0 hPa 0,0 l/m 0 min 0 min 0,0 UV-I 0 W/m 0,0 km/h (0 Bft)
23.03.2014 03:20 4,3 C 2,8 C 90 % 1003,0 hPa 0,0 l/m 0 min 0 min 0,0 UV-I 0 W/m 5,1 km/h (1 Bft)
23.03.2014 03:22 4,3 C 2,8 C 90 % 1003,0 hPa 0,0 l/m 0 min 0 min 0,0 UV-I 0 W/m 7,7 km/h (2 Bft)
23.03.2014 03:24 4,3 C 2,8 C 90 % 1003,0 hPa 0,0 l/m 0 min 0 min 0,0 UV-I 0 W/m 0,0 km/h (0 Bft)
23.03.2014 03:26 4,3 C 2,8 C 90 % 1003,0 hPa 0,0 l/m 0 min 0 min 0,0 UV-I 0 W/m 2,6 km/h (1 Bft)
23.03.2014 03:28 4,3 C 2,8 C 90 % 1003,0 hPa 0,0 l/m 0 min 0 min 0,0 UV-I 0 W/m 0,0 km/h (0 Bft)
23.03.2014 03:30 4,3 C 2,8 C 90 % 1003,0 hPa 0,0 l/m 0 min 0 min 0,0 UV-I 0 W/m 0,0 km/h (0 Bft)
23.03.2014 03:32 4,3 C 2,8 C 90 % 1003,0 hPa 0,0 l/m 0 min 0 min 0,0 UV-I 0 W/m 2,6 km/h (1 Bft)
23.03.2014 03:34 4,3 C 2,8 C 90 % 1003,0 hPa 0,0 l/m 0 min 0 min 0,0 UV-I 0 W/m 7,7 km/h (2 Bft)
23.03.2014 03:36 4,2 C 2,8 C 90 % 1003,0 hPa 0,0 l/m 0 min 0 min 0,0 UV-I 0 W/m 10,3 km/h (2 Bft)
23.03.2014 03:38 4,2 C 2,8 C 90 % 1003,0 hPa 0,0 l/m 0 min 0 min 0,0 UV-I 0 W/m 10,3 km/h (2 Bft)
23.03.2014 03:40 4,2 C 2,8 C 90 % 1003,0 hPa 0,0 l/m 0 min 0 min 0,0 UV-I 0 W/m 0,0 km/h (0 Bft)
23.03.2014 03:42 4,2 C 2,8 C 90 % 1003,0 hPa 0,0 l/m 0 min 0 min 0,0 UV-I 0 W/m 7,7 km/h (2 Bft)
23.03.2014 03:44 4,1 C 2,2 C 90 % 1002,9 hPa 0,0 l/m 0 min 0 min 0,0 UV-I 0 W/m 0,0 km/h (0 Bft)
23.03.2014 03:46 4,1 C 2,2 C 90 % 1002,9 hPa 0,0 l/m 0 min 0 min 0,0 UV-I 0 W/m 5,1 km/h (1 Bft)
23.03.2014 03:48 4,1 C 2,2 C 90 % 1002,9 hPa 0,0 l/m 0 min 0 min 0,0 UV-I 0 W/m 0,0 km/h (0 Bft)
23.03.2014 03:50 4,0 C 2,2 C 90 % 1002,9 hPa 0,0 l/m 0 min 0 min 0,0 UV-I 0 W/m 0,0 km/h (0 Bft)
23.03.2014 03:52 4,0 C 2,2 C 90 % 1002,9 hPa 0,0 l/m 0 min 0 min 0,0 UV-I 0 W/m 0,0 km/h (0 Bft)
23.03.2014 03:54 3,9 C 2,2 C 90 % 1003,0 hPa 0,0 l/m 0 min 0 min 0,0 UV-I 0 W/m 0,0 km/h (0 Bft)
23.03.2014 03:56 3,9 C 2,2 C 90 % 1002,9 hPa 0,0 l/m 0 min 0 min 0,0 UV-I 0 W/m 2,6 km/h (1 Bft)
23.03.2014 03:58 3,9 C 2,2 C 90 % 1002,9 hPa 0,0 l/m 0 min 0 min 0,0 UV-I 0 W/m 0,0 km/h (0 Bft)
23.03.2014 04:00 3,8 C 2,2 C 90 % 1002,9 hPa 0,0 l/m 0 min 0 min 0,0 UV-I 0 W/m 0,0 km/h (0 Bft)
23.03.2014 04:02 3,8 C 2,2 C 90 % 1003,0 hPa 0,0 l/m 0 min 0 min 0,0 UV-I 0 W/m 0,0 km/h (0 Bft)
23.03.2014 04:06 3,7 C 2,2 C 90 % 1003,0 hPa 0,0 l/m 0 min 0 min 0,0 UV-I 0 W/m 0,0 km/h (0 Bft)
23.03.2014 04:08 3,7 C 2,2 C 90 % 1003,0 hPa 0,0 l/m 0 min 0 min 0,0 UV-I 0 W/m 0,0 km/h (0 Bft)
23.03.2014 04:10 3,7 C 2,2 C 91 % 1003,2 hPa 0,0 l/m 0 min 0 min 0,0 UV-I 0 W/m 5,1 km/h (1 Bft)
23.03.2014 04:12 3,7 C 2,2 C 91 % 1003,3 hPa 0,0 l/m 0 min 0 min 0,0 UV-I 0 W/m 10,3 km/h (2 Bft)
23.03.2014 04:14 3,7 C 2,2 C 91 % 1003,3 hPa 0,0 l/m 0 min 0 min 0,0 UV-I 0 W/m 0,0 km/h (0 Bft)
23.03.2014 04:16 3,7 C 2,2 C 91 % 1003,3 hPa 0,0 l/m 0 min 0 min 0,0 UV-I 0 W/m 0,0 km/h (0 Bft)
23.03.2014 04:18 3,6 C 2,2 C 91 % 1003,3 hPa 0,0 l/m 0 min 0 min 0,0 UV-I 0 W/m 2,6 km/h (1 Bft)
23.03.2014 04:20 3,6 C 2,2 C 91 % 1003,3 hPa 0,0 l/m 0 min 0 min 0,0 UV-I 0 W/m 7,7 km/h (2 Bft)
23.03.2014 04:22 3,6 C 2,2 C 91 % 1003,3 hPa 0,0 l/m 0 min 0 min 0,0 UV-I 0 W/m 2,6 km/h (1 Bft)
23.03.2014 04:24 3,6 C 2,2 C 91 % 1003,3 hPa 0,0 l/m 0 min 0 min 0,0 UV-I 0 W/m 7,7 km/h (2 Bft)
23.03.2014 04:26 3,7 C 2,2 C 91 % 1003,3 hPa 0,0 l/m 0 min 0 min 0,0 UV-I 0 W/m 5,1 km/h (1 Bft)
23.03.2014 04:28 3,7 C 2,2 C 91 % 1003,4 hPa 0,0 l/m 0 min 0 min 0,0 UV-I 0 W/m 10,3 km/h (2 Bft)
23.03.2014 04:30 3,7 C 2,8 C 91 % 1003,4 hPa 0,0 l/m 0 min 0 min 0,0 UV-I 0 W/m 10,3 km/h (2 Bft)
23.03.2014 04:32 3,7 C 2,8 C 91 % 1003,4 hPa 0,0 l/m 0 min 0 min 0,0 UV-I 0 W/m 15,4 km/h (3 Bft)
23.03.2014 04:34 3,8 C 2,8 C 91 % 1003,3 hPa 0,0 l/m 0 min 0 min 0,0 UV-I 0 W/m 7,7 km/h (2 Bft)
23.03.2014 04:36 3,8 C 2,8 C 92 % 1003,3 hPa 0,0 l/m 0 min 0 min 0,0 UV-I 0 W/m 2,6 km/h (1 Bft)
23.03.2014 04:38 3,8 C 2,8 C 91 % 1003,4 hPa 0,0 l/m 0 min 0 min 0,0 UV-I 0 W/m 5,1 km/h (1 Bft)
23.03.2014 04:40 3,8 C 2,8 C 91 % 1003,3 hPa 0,0 l/m 0 min 0 min 0,0 UV-I 0 W/m 12,9 km/h (3 Bft)
23.03.2014 04:42 3,9 C 2,8 C 91 % 1003,4 hPa 0,0 l/m 0 min 0 min 0,0 UV-I 0 W/m 18,0 km/h (3 Bft)
23.03.2014 04:44 3,9 C 2,8 C 91 % 1003,4 hPa 0,0 l/m 0 min 0 min 0,0 UV-I 0 W/m 5,1 km/h (1 Bft)
23.03.2014 04:46 3,9 C 2,8 C 91 % 1003,4 hPa 0,0 l/m 0 min 0 min 0,0 UV-I 0 W/m 10,3 km/h (2 Bft)
23.03.2014 04:48 3,9 C 2,8 C 91 % 1003,3 hPa 0,0 l/m 0 min 0 min 0,0 UV-I 0 W/m 7,7 km/h (2 Bft)
23.03.2014 04:50 3,9 C 2,8 C 91 % 1003,3 hPa 0,0 l/m 0 min 0 min 0,0 UV-I 0 W/m 12,9 km/h (3 Bft)
23.03.2014 04:52 3,9 C 2,8 C 91 % 1003,3 hPa 0,0 l/m 0 min 0 min 0,0 UV-I 0 W/m 10,3 km/h (2 Bft)
23.03.2014 04:54 3,9 C 2,8 C 91 % 1003,4 hPa 0,0 l/m 0 min 0 min 0,0 UV-I 0 W/m 0,0 km/h (0 Bft)
23.03.2014 04:56 3,9 C 2,8 C 91 % 1003,3 hPa 0,0 l/m 0 min 0 min 0,0 UV-I 0 W/m 7,7 km/h (2 Bft)
23.03.2014 04:58 3,9 C 2,8 C 91 % 1003,3 hPa 0,0 l/m 0 min 0 min 0,0 UV-I 0 W/m 0,0 km/h (0 Bft)
23.03.2014 05:00 3,9 C 2,8 C 91 % 1003,3 hPa 0,0 l/m 0 min 0 min 0,0 UV-I 0 W/m 10,3 km/h (2 Bft)
23.03.2014 05:02 3,9 C 2,8 C 91 % 1003,3 hPa 0,0 l/m 0 min 0 min 0,0 UV-I 0 W/m 0,0 km/h (0 Bft)
23.03.2014 05:06 3,8 C 2,2 C 91 % 1003,3 hPa 0,0 l/m 0 min 0 min 0,0 UV-I 0 W/m 10,3 km/h (2 Bft)
23.03.2014 05:08 3,8 C 2,2 C 91 % 1003,3 hPa 0,0 l/m 0 min 0 min 0,0 UV-I 0 W/m 0,0 km/h (0 Bft)
23.03.2014 05:10 3,8 C 2,2 C 91 % 1003,3 hPa 0,0 l/m 0 min 0 min 0,0 UV-I 0 W/m 7,7 km/h (2 Bft)
23.03.2014 05:12 3,8 C 2,2 C 91 % 1003,4 hPa 0,0 l/m 0 min 0 min 0,0 UV-I 0 W/m 7,7 km/h (2 Bft)
23.03.2014 05:14 3,8 C 2,2 C 91 % 1003,4 hPa 0,0 l/m 0 min 0 min 0,0 UV-I 0 W/m 10,3 km/h (2 Bft)
23.03.2014 05:16 3,7 C 2,2 C 91 % 1003,5 hPa 0,0 l/m 0 min 0 min 0,0 UV-I 0 W/m 7,7 km/h (2 Bft)
23.03.2014 05:18 3,7 C 2,2 C 91 % 1003,5 hPa 0,0 l/m 0 min 0 min 0,0 UV-I 0 W/m 0,0 km/h (0 Bft)
23.03.2014 05:20 3,7 C 2,2 C 91 % 1003,4 hPa 0,0 l/m 0 min 0 min 0,0 UV-I 0 W/m 0,0 km/h (0 Bft)
23.03.2014 05:22 3,7 C 2,2 C 91 % 1003,4 hPa 0,0 l/m 0 min 0 min 0,0 UV-I 0 W/m 7,7 km/h (2 Bft)
23.03.2014 05:24 3,7 C 2,2 C 91 % 1003,4 hPa 0,0 l/m 0 min 0 min 0,0 UV-I 0 W/m 0,0 km/h (0 Bft)
23.03.2014 05:26 3,6 C 2,2 C 91 % 1003,4 hPa 0,0 l/m 0 min 0 min 0,0 UV-I 0 W/m 0,0 km/h (0 Bft)
23.03.2014 05:28 3,6 C 2,2 C 91 % 1003,4 hPa 0,0 l/m 0 min 0 min 0,0 UV-I 0 W/m 0,0 km/h (0 Bft)
23.03.2014 05:30 3,6 C 2,2 C 91 % 1003,4 hPa 0,0 l/m 0 min 0 min 0,0 UV-I 0 W/m 7,7 km/h (2 Bft)
23.03.2014 05:32 3,6 C 2,2 C 91 % 1003,5 hPa 0,0 l/m 0 min 0 min 0,0 UV-I 0 W/m 0,0 km/h (0 Bft)
23.03.2014 05:34 3,5 C 2,2 C 91 % 1003,4 hPa 0,0 l/m 0 min 0 min 0,0 UV-I 0 W/m 7,7 km/h (2 Bft)
23.03.2014 05:36 3,5 C 2,2 C 91 % 1003,5 hPa 0,0 l/m 0 min 0 min 0,0 UV-I 0 W/m 5,1 km/h (1 Bft)
23.03.2014 05:38 3,5 C 2,2 C 91 % 1003,5 hPa 0,0 l/m 0 min 0 min 0,0 UV-I 0 W/m 5,1 km/h (1 Bft)
23.03.2014 05:40 3,5 C 2,2 C 91 % 1003,5 hPa 0,0 l/m 0 min 0 min 0,0 UV-I 0 W/m 0,0 km/h (0 Bft)
23.03.2014 05:42 3,4 C 2,2 C 91 % 1003,4 hPa 0,0 l/m 0 min 0 min 0,0 UV-I 0 W/m 0,0 km/h (0 Bft)
23.03.2014 05:44 3,4 C 2,2 C 91 % 1003,5 hPa 0,0 l/m 0 min 0 min 0,0 UV-I 0 W/m 2,6 km/h (1 Bft)
23.03.2014 05:46 3,4 C 2,2 C 91 % 1003,5 hPa 0,0 l/m 0 min 0 min 0,0 UV-I 0 W/m 0,0 km/h (0 Bft)
23.03.2014 05:48 3,4 C 2,2 C 91 % 1003,5 hPa 0,0 l/m 0 min 0 min 0,0 UV-I 0 W/m 7,7 km/h (2 Bft)
23.03.2014 05:50 3,4 C 2,2 C 92 % 1003,5 hPa 0,0 l/m 0 min 0 min 0,0 UV-I 0 W/m 0,0 km/h (0 Bft)
23.03.2014 05:52 3,4 C 2,2 C 92 % 1003,5 hPa 0,0 l/m 0 min 0 min 0,0 UV-I 0 W/m 0,0 km/h (0 Bft)
23.03.2014 05:54 3,4 C 2,2 C 92 % 1003,5 hPa 0,0 l/m 0 min 0 min 0,0 UV-I 0 W/m 5,1 km/h (1 Bft)
23.03.2014 05:56 3,4 C 2,2 C 92 % 1003,5 hPa 0,0 l/m 0 min 0 min 0,0 UV-I 0 W/m 18,0 km/h (3 Bft)
23.03.2014 05:58 3,4 C 2,2 C 92 % 1003,5 hPa 0,0 l/m 0 min 0 min 0,0 UV-I 0 W/m 2,6 km/h (1 Bft)
23.03.2014 06:00 3,4 C 2,2 C 92 % 1003,6 hPa 0,0 l/m 0 min 0 min 0,0 UV-I 0 W/m 5,1 km/h (1 Bft)
23.03.2014 06:02 3,4 C 2,2 C 92 % 1003,5 hPa 0,0 l/m 0 min 0 min 0,0 UV-I 0 W/m 10,3 km/h (2 Bft)
23.03.2014 06:06 3,4 C 2,2 C 92 % 1003,6 hPa 0,0 l/m 0 min 0 min 0,0 UV-I 0 W/m 7,7 km/h (2 Bft)
23.03.2014 06:08 3,4 C 2,2 C 92 % 1003,7 hPa 0,0 l/m 0 min 0 min 0,0 UV-I 0 W/m 5,1 km/h (1 Bft)
23.03.2014 06:10 3,4 C 2,2 C 92 % 1003,7 hPa 0,0 l/m 0 min 0 min 0,0 UV-I 0 W/m 0,0 km/h (0 Bft)
23.03.2014 06:12 3,4 C 2,2 C 92 % 1003,8 hPa 0,0 l/m 0 min 0 min 0,0 UV-I 0 W/m 10,3 km/h (2 Bft)
23.03.2014 06:14 3,4 C 2,2 C 92 % 1003,7 hPa 0,0 l/m 0 min 0 min 0,0 UV-I 0 W/m 15,4 km/h (3 Bft)
23.03.2014 06:16 3,4 C 2,2 C 92 % 1003,8 hPa 0,0 l/m 0 min 0 min 0,0 UV-I 0 W/m 10,3 km/h (2 Bft)
23.03.2014 06:18 3,4 C 2,2 C 92 % 1003,9 hPa 0,0 l/m 0 min 0 min 0,0 UV-I 0 W/m 12,9 km/h (3 Bft)
23.03.2014 06:20 3,4 C 2,2 C 92 % 1003,9 hPa 0,0 l/m 0 min 0 min 0,0 UV-I 0 W/m 2,6 km/h (1 Bft)
23.03.2014 06:22 3,4 C 2,2 C 92 % 1003,8 hPa 0,0 l/m 0 min 0 min 0,0 UV-I 0 W/m 0,0 km/h (0 Bft)
23.03.2014 06:24 3,4 C 2,2 C 92 % 1003,9 hPa 0,0 l/m 0 min 0 min 0,0 UV-I 0 W/m 0,0 km/h (0 Bft)
23.03.2014 06:26 3,4 C 2,2 C 92 % 1003,9 hPa 0,0 l/m 0 min 0 min 0,0 UV-I 0 W/m 5,1 km/h (1 Bft)
23.03.2014 06:28 3,3 C 2,2 C 92 % 1003,9 hPa 0,0 l/m 0 min 0 min 0,0 UV-I 0 W/m 0,0 km/h (0 Bft)
23.03.2014 06:30 3,3 C 2,2 C 92 % 1004,0 hPa 0,0 l/m 0 min 0 min 0,0 UV-I 0 W/m 2,6 km/h (1 Bft)
23.03.2014 06:32 3,3 C 2,2 C 92 % 1004,0 hPa 0,0 l/m 0 min 0 min 0,0 UV-I 0 W/m 12,9 km/h (3 Bft)
23.03.2014 06:34 3,3 C 2,2 C 92 % 1004,0 hPa 0,0 l/m 0 min 0 min 0,0 UV-I 5 W/m 7,7 km/h (2 Bft)
23.03.2014 06:36 3,4 C 2,2 C 92 % 1004,0 hPa 0,0 l/m 0 min 0 min 0,0 UV-I 5 W/m 5,1 km/h (1 Bft)
23.03.2014 06:38 3,4 C 2,2 C 92 % 1004,1 hPa 0,0 l/m 0 min 0 min 0,0 UV-I 5 W/m 0,0 km/h (0 Bft)
23.03.2014 06:40 3,4 C 2,2 C 92 % 1004,1 hPa 0,0 l/m 0 min 0 min 0,0 UV-I 7 W/m 2,6 km/h (1 Bft)
23.03.2014 06:42 3,4 C 2,2 C 93 % 1004,1 hPa 0,0 l/m 0 min 0 min 0,0 UV-I 7 W/m 0,0 km/h (0 Bft)
23.03.2014 06:44 3,4 C 2,2 C 93 % 1004,1 hPa 0,0 l/m 0 min 0 min 0,0 UV-I 9 W/m 5,1 km/h (1 Bft)
23.03.2014 06:46 3,4 C 2,2 C 93 % 1004,1 hPa 0,0 l/m 0 min 0 min 0,0 UV-I 9 W/m 5,1 km/h (1 Bft)
23.03.2014 06:48 3,4 C 2,2 C 93 % 1004,1 hPa 0,0 l/m 0 min 0 min 0,0 UV-I 11 W/m 2,6 km/h (1 Bft)
23.03.2014 06:50 3,4 C 2,2 C 93 % 1004,1 hPa 0,0 l/m 0 min 0 min 0,0 UV-I 18 W/m 7,7 km/h (2 Bft)
23.03.2014 06:52 3,4 C 2,2 C 93 % 1004,2 hPa 0,0 l/m 0 min 0 min 0,0 UV-I 23 W/m 12,9 km/h (3 Bft)
23.03.2014 06:54 3,5 C 2,2 C 93 % 1004,1 hPa 0,0 l/m 0 min 0 min 0,0 UV-I 23 W/m 2,6 km/h (1 Bft)
23.03.2014 06:55 3,5 C 2,2 C 93 % 1004,1 hPa 0,0 l/m 0 min 0 min 0,0 UV-I 23 W/m 12,9 km/h (3 Bft)
23.03.2014 07:00 3,6 C 2,2 C 92 % 1004,2 hPa 0,0 l/m 0 min 0 min 0,0 UV-I 14 W/m 15,4 km/h (3 Bft)
23.03.2014 07:08 3,5 C 2,2 C 92 % 1004,3 hPa 0,0 l/m 0 min 0 min 0,0 UV-I 21 W/m 0,0 km/h (0 Bft)
23.03.2014 07:10 3,6 C 2,2 C 92 % 1004,3 hPa 0,0 l/m 0 min 0 min 0,0 UV-I 21 W/m 10,3 km/h (2 Bft)
23.03.2014 07:12 3,6 C 2,2 C 92 % 1004,3 hPa 0,0 l/m 0 min 0 min 0,0 UV-I 21 W/m 0,0 km/h (0 Bft)
23.03.2014 07:14 3,6 C 2,2 C 92 % 1004,3 hPa 0,0 l/m 0 min 0 min 0,0 UV-I 23 W/m 5,1 km/h (1 Bft)
23.03.2014 07:16 3,6 C 2,2 C 92 % 1004,3 hPa 0,0 l/m 0 min 0 min 0,0 UV-I 23 W/m 5,1 km/h (1 Bft)
23.03.2014 07:18 3,6 C 2,2 C 92 % 1004,4 hPa 0,0 l/m 0 min 0 min 0,0 UV-I 25 W/m 5,1 km/h (1 Bft)
23.03.2014 07:20 3,6 C 2,2 C 92 % 1004,4 hPa 0,0 l/m 0 min 0 min 0,0 UV-I 26 W/m 10,3 km/h (2 Bft)
23.03.2014 07:22 3,7 C 2,8 C 92 % 1004,5 hPa 0,0 l/m 0 min 0 min 0,0 UV-I 26 W/m 12,9 km/h (3 Bft)
23.03.2014 07:24 3,7 C 2,8 C 92 % 1004,5 hPa 0,0 l/m 0 min 0 min 0,0 UV-I 28 W/m 7,7 km/h (2 Bft)
23.03.2014 07:26 3,7 C 2,8 C 92 % 1004,5 hPa 0,0 l/m 0 min 0 min 0,0 UV-I 28 W/m 10,3 km/h (2 Bft)
23.03.2014 07:28 3,8 C 2,8 C 92 % 1004,5 hPa 0,0 l/m 0 min 0 min 0,0 UV-I 28 W/m 20,6 km/h (4 Bft)
23.03.2014 07:30 3,8 C 2,8 C 92 % 1004,6 hPa 0,0 l/m 0 min 0 min 0,0 UV-I 30 W/m 10,3 km/h (2 Bft)
23.03.2014 07:32 3,8 C 2,8 C 92 % 1004,6 hPa 0,0 l/m 0 min 0 min 0,0 UV-I 30 W/m 12,9 km/h (3 Bft)
23.03.2014 07:34 3,9 C 2,8 C 92 % 1004,6 hPa 0,0 l/m 0 min 0 min 0,0 UV-I 53 W/m 5,1 km/h (1 Bft)
23.03.2014 07:36 3,9 C 2,8 C 92 % 1004,7 hPa 0,0 l/m 0 min 0 min 0,0 UV-I 79 W/m 10,3 km/h (2 Bft)
23.03.2014 07:38 3,9 C 2,8 C 92 % 1004,7 hPa 0,0 l/m 2 min 0 min 0,0 UV-I 97 W/m 7,7 km/h (2 Bft)
23.03.2014 07:40 4,0 C 2,8 C 92 % 1004,7 hPa 0,0 l/m 2 min 0 min 0,0 UV-I 104 W/m 12,9 km/h (3 Bft)
23.03.2014 07:42 4,0 C 2,8 C 91 % 1004,8 hPa 0,0 l/m 2 min 0 min 0,0 UV-I 109 W/m 12,9 km/h (3 Bft)
23.03.2014 07:44 4,1 C 2,8 C 91 % 1004,8 hPa 0,0 l/m 2 min 0 min 0,0 UV-I 116 W/m 10,3 km/h (2 Bft)
23.03.2014 07:46 4,1 C 2,8 C 91 % 1004,7 hPa 0,0 l/m 2 min 0 min 0,0 UV-I 121 W/m 10,3 km/h (2 Bft)
23.03.2014 07:48 4,1 C 2,8 C 91 % 1004,8 hPa 0,0 l/m 2 min 0 min 0,0 UV-I 130 W/m 12,9 km/h (3 Bft)
23.03.2014 07:50 4,2 C 2,8 C 91 % 1004,8 hPa 0,0 l/m 2 min 0 min 0,0 UV-I 137 W/m 15,4 km/h (3 Bft)
23.03.2014 07:52 4,2 C 3,3 C 91 % 1004,8 hPa 0,0 l/m 2 min 0 min 0,0 UV-I 142 W/m 7,7 km/h (2 Bft)
23.03.2014 07:54 4,2 C 3,3 C 91 % 1004,8 hPa 0,0 l/m 2 min 0 min 0,0 UV-I 127 W/m 10,3 km/h (2 Bft)
23.03.2014 07:56 4,2 C 3,3 C 91 % 1004,7 hPa 0,0 l/m 2 min 0 min 0,0 UV-I 153 W/m 0,0 km/h (0 Bft)
23.03.2014 07:58 4,3 C 3,3 C 91 % 1004,8 hPa 0,0 l/m 2 min 0 min 0,0 UV-I 163 W/m 5,1 km/h (1 Bft)
23.03.2014 08:00 4,3 C 3,3 C 91 % 1004,8 hPa 0,0 l/m 0 min 0 min 0,0 UV-I 53 W/m 15,4 km/h (3 Bft)
23.03.2014 08:02 4,3 C 3,3 C 91 % 1004,7 hPa 0,0 l/m 2 min 0 min 0,0 UV-I 179 W/m 15,4 km/h (3 Bft)
23.03.2014 08:06 4,4 C 3,3 C 90 % 1004,7 hPa 0,0 l/m 2 min 0 min 0,0 UV-I 204 W/m 12,9 km/h (3 Bft)
23.03.2014 08:08 4,6 C 3,3 C 90 % 1004,7 hPa 0,0 l/m 2 min 0 min 0,0 UV-I 218 W/m 15,4 km/h (3 Bft)
23.03.2014 08:10 4,7 C 3,3 C 90 % 1004,7 hPa 0,0 l/m 2 min 0 min 0,0 UV-I 237 W/m 23,2 km/h (4 Bft)
23.03.2014 08:12 4,8 C 3,9 C 90 % 1004,8 hPa 0,0 l/m 2 min 0 min 0,0 UV-I 257 W/m 15,4 km/h (3 Bft)
23.03.2014 08:14 4,9 C 3,9 C 90 % 1004,8 hPa 0,0 l/m 2 min 0 min 0,0 UV-I 264 W/m 15,4 km/h (3 Bft)
23.03.2014 08:16 5,1 C 3,9 C 89 % 1004,9 hPa 0,0 l/m 2 min 0 min 0,0 UV-I 239 W/m 15,4 km/h (3 Bft)
23.03.2014 08:18 5,1 C 3,9 C 89 % 1004,9 hPa 0,0 l/m 0 min 0 min 0,0 UV-I 121 W/m 15,4 km/h (3 Bft)
23.03.2014 08:20 5,1 C 3,9 C 89 % 1005,0 hPa 0,0 l/m 0 min 0 min 0,0 UV-I 120 W/m 7,7 km/h (2 Bft)
23.03.2014 08:22 5,1 C 3,9 C 88 % 1005,0 hPa 0,0 l/m 0 min 0 min 0,0 UV-I 123 W/m 18,0 km/h (3 Bft)
23.03.2014 08:24 5,1 C 3,9 C 88 % 1005,1 hPa 0,0 l/m 0 min 0 min 0,0 UV-I 158 W/m 10,3 km/h (2 Bft)
23.03.2014 08:26 5,1 C 4,4 C 88 % 1005,0 hPa 0,0 l/m 0 min 0 min 0,0 UV-I 144 W/m 2,6 km/h (1 Bft)
23.03.2014 08:28 5,1 C 4,4 C 88 % 1005,0 hPa 0,0 l/m 0 min 0 min 0,0 UV-I 139 W/m 5,1 km/h (1 Bft)
23.03.2014 08:30 5,1 C 4,4 C 88 % 1005,0 hPa 0,0 l/m 0 min 0 min 0,0 UV-I 151 W/m 12,9 km/h (3 Bft)
23.03.2014 08:32 5,1 C 4,4 C 88 % 1005,1 hPa 0,0 l/m 0 min 0 min 0,0 UV-I 130 W/m 5,1 km/h (1 Bft)
23.03.2014 08:34 5,1 C 3,9 C 88 % 1005,2 hPa 0,0 l/m 0 min 0 min 0,0 UV-I 130 W/m 7,7 km/h (2 Bft)
23.03.2014 08:36 5,1 C 4,4 C 88 % 1005,2 hPa 0,0 l/m 0 min 0 min 0,0 UV-I 153 W/m 10,3 km/h (2 Bft)
23.03.2014 08:38 5,1 C 4,4 C 88 % 1005,2 hPa 0,0 l/m 0 min 0 min 0,0 UV-I 163 W/m 7,7 km/h (2 Bft)
23.03.2014 08:40 5,1 C 4,4 C 88 % 1005,2 hPa 0,0 l/m 0 min 0 min 0,0 UV-I 171 W/m 18,0 km/h (3 Bft)
23.03.2014 08:42 5,2 C 4,4 C 88 % 1005,2 hPa 0,0 l/m 2 min 0 min 0,0 UV-I 352 W/m 0,0 km/h (0 Bft)
23.03.2014 08:44 5,3 C 4,4 C 88 % 1005,3 hPa 0,0 l/m 2 min 0 min 0,0 UV-I 369 W/m 7,7 km/h (2 Bft)
23.03.2014 08:46 5,4 C 5,0 C 88 % 1005,3 hPa 0,0 l/m 2 min 0 min 0,0 UV-I 390 W/m 15,4 km/h (3 Bft)
23.03.2014 08:48 5,7 C 5,0 C 88 % 1005,4 hPa 0,0 l/m 2 min 0 min 0,0 UV-I 387 W/m 10,3 km/h (2 Bft)
23.03.2014 08:50 5,7 C 5,0 C 88 % 1005,4 hPa 0,0 l/m 2 min 0 min 0,0 UV-I 371 W/m 23,2 km/h (4 Bft)
23.03.2014 08:52 5,8 C 5,0 C 87 % 1005,4 hPa 0,0 l/m 2 min 0 min 0,0 UV-I 267 W/m 12,9 km/h (3 Bft)
23.03.2014 08:54 5,8 C 5,0 C 86 % 1005,4 hPa 0,0 l/m 2 min 0 min 0,0 UV-I 264 W/m 15,4 km/h (3 Bft)
23.03.2014 08:56 5,8 C 5,0 C 86 % 1005,4 hPa 0,0 l/m 2 min 0 min 0,0 UV-I 294 W/m 18,0 km/h (3 Bft)
23.03.2014 08:58 5,8 C 5,0 C 86 % 1005,4 hPa 0,0 l/m 0 min 0 min 0,0 UV-I 118 W/m 18,0 km/h (3 Bft)
23.03.2014 09:00 5,7 C 5,0 C 86 % 1005,4 hPa 0,0 l/m 0 min 0 min 0,0 UV-I 165 W/m 18,0 km/h (3 Bft)
23.03.2014 09:02 5,7 C 5,0 C 86 % 1005,4 hPa 0,0 l/m 0 min 0 min 0,0 UV-I 165 W/m 15,4 km/h (3 Bft)
23.03.2014 09:04 5,7 C 5,0 C 86 % 1005,4 hPa 0,0 l/m 0 min 0 min 0,0 UV-I 172 W/m 20,6 km/h (4 Bft)
23.03.2014 09:06 5,7 C 5,0 C 86 % 1005,4 hPa 0,0 l/m 0 min 0 min 0,0 UV-I 162 W/m 7,7 km/h (2 Bft)
23.03.2014 09:08 5,7 C 5,0 C 86 % 1005,4 hPa 0,0 l/m 0 min 0 min 0,0 UV-I 171 W/m 25,7 km/h (4 Bft)
23.03.2014 09:10 5,7 C 5,0 C 86 % 1005,5 hPa 0,0 l/m 0 min 0 min 0,0 UV-I 167 W/m 12,9 km/h (3 Bft)
23.03.2014 09:12 5,7 C 5,0 C 86 % 1005,5 hPa 0,0 l/m 0 min 0 min 0,0 UV-I 185 W/m 18,0 km/h (3 Bft)
23.03.2014 09:14 5,6 C 5,0 C 86 % 1005,5 hPa 0,0 l/m 0 min 0 min 0,0 UV-I 176 W/m 28,3 km/h (4 Bft)
23.03.2014 09:16 5,6 C 5,0 C 86 % 1005,5 hPa 0,0 l/m 0 min 0 min 0,0 UV-I 165 W/m 18,0 km/h (3 Bft)
23.03.2014 09:18 5,6 C 5,0 C 86 % 1005,6 hPa 0,0 l/m 0 min 0 min 0,0 UV-I 107 W/m 10,3 km/h (2 Bft)
23.03.2014 09:20 5,6 C 5,0 C 86 % 1005,5 hPa 0,0 l/m 0 min 0 min 0,0 UV-I 91 W/m 18,0 km/h (3 Bft)
23.03.2014 09:22 5,6 C 5,0 C 86 % 1005,5 hPa 0,0 l/m 0 min 0 min 0,0 UV-I 127 W/m 33,5 km/h (5 Bft)
23.03.2014 09:24 5,5 C 4,4 C 85 % 1005,6 hPa 0,0 l/m 0 min 0 min 0,0 UV-I 142 W/m 12,9 km/h (3 Bft)
23.03.2014 09:26 5,4 C 5,0 C 85 % 1005,5 hPa 0,0 l/m 0 min 0 min 0,0 UV-I 192 W/m 20,6 km/h (4 Bft)
23.03.2014 09:28 5,5 C 5,0 C 85 % 1005,6 hPa 0,0 l/m 2 min 0 min 0,0 UV-I 380 W/m 18,0 km/h (3 Bft)
23.03.2014 09:30 5,6 C 4,4 C 85 % 1005,6 hPa 0,0 l/m 0 min 0 min 0,0 UV-I 104 W/m 12,9 km/h (3 Bft)
23.03.2014 09:32 5,6 C 4,4 C 85 % 1005,5 hPa 0,0 l/m 0 min 0 min 0,0 UV-I 121 W/m 10,3 km/h (2 Bft)
23.03.2014 09:34 5,6 C 4,4 C 85 % 1005,5 hPa 0,0 l/m 0 min 0 min 0,0 UV-I 156 W/m 7,7 km/h (2 Bft)
23.03.2014 09:36 5,6 C 5,0 C 85 % 1005,5 hPa 0,0 l/m 0 min 0 min 0,0 UV-I 151 W/m 25,7 km/h (4 Bft)
23.03.2014 09:38 5,6 C 5,0 C 85 % 1005,6 hPa 0,0 l/m 0 min 0 min 0,0 UV-I 183 W/m 18,0 km/h (3 Bft)
23.03.2014 09:40 5,6 C 5,0 C 86 % 1005,6 hPa 0,0 l/m 0 min 0 min 0,0 UV-I 216 W/m 15,4 km/h (3 Bft)
23.03.2014 09:42 5,7 C 5,0 C 86 % 1005,6 hPa 0,0 l/m 0 min 0 min 0,0 UV-I 195 W/m 18,0 km/h (3 Bft)
23.03.2014 09:44 5,7 C 5,6 C 86 % 1005,6 hPa 0,0 l/m 0 min 0 min 0,0 UV-I 181 W/m 2,6 km/h (1 Bft)
23.03.2014 09:46 5,8 C 5,6 C 85 % 1005,6 hPa 0,0 l/m 0 min 0 min 0,0 UV-I 221 W/m 18,0 km/h (3 Bft)
23.03.2014 09:48 5,9 C 5,6 C 85 % 1005,6 hPa 0,0 l/m 0 min 0 min 0,0 UV-I 190 W/m 12,9 km/h (3 Bft)
23.03.2014 09:50 5,9 C 5,6 C 86 % 1005,6 hPa 0,0 l/m 0 min 0 min 0,0 UV-I 185 W/m 2,6 km/h (1 Bft)
23.03.2014 09:52 6,0 C 5,6 C 85 % 1005,6 hPa 0,0 l/m 0 min 0 min 0,0 UV-I 214 W/m 7,7 km/h (2 Bft)
23.03.2014 09:54 6,0 C 5,6 C 85 % 1005,7 hPa 0,0 l/m 0 min 0 min 0,0 UV-I 202 W/m 12,9 km/h (3 Bft)
23.03.2014 09:56 6,0 C 5,6 C 85 % 1005,7 hPa 0,0 l/m 0 min 0 min 0,0 UV-I 148 W/m 20,6 km/h (4 Bft)
23.03.2014 09:58 5,9 C 5,6 C 85 % 1005,7 hPa 0,0 l/m 0 min 0 min 0,0 UV-I 151 W/m 12,9 km/h (3 Bft)
23.03.2014 10:00 5,9 C 5,6 C 85 % 1005,8 hPa 0,0 l/m 0 min 0 min 0,0 UV-I 146 W/m 7,7 km/h (2 Bft)
23.03.2014 10:02 5,9 C 5,6 C 84 % 1005,7 hPa 0,0 l/m 0 min 0 min 0,0 UV-I 142 W/m 12,9 km/h (3 Bft)
23.03.2014 10:04 5,9 C 5,0 C 84 % 1005,7 hPa 0,0 l/m 0 min 0 min 0,0 UV-I 134 W/m 10,3 km/h (2 Bft)
23.03.2014 10:06 5,8 C 5,0 C 84 % 1005,8 hPa 0,0 l/m 0 min 0 min 0,0 UV-I 127 W/m 7,7 km/h (2 Bft)
23.03.2014 10:08 5,9 C 5,6 C 85 % 1005,7 hPa 0,0 l/m 0 min 0 min 0,0 UV-I 148 W/m 15,4 km/h (3 Bft)
23.03.2014 10:10 6,0 C 5,6 C 85 % 1005,7 hPa 0,0 l/m 2 min 0 min 0,0 UV-I 355 W/m 15,4 km/h (3 Bft)
23.03.2014 10:12 6,2 C 6,1 C 85 % 1005,7 hPa 0,0 l/m 2 min 0 min 0,9 UV-I 417 W/m 5,1 km/h (1 Bft)
23.03.2014 10:14 6,5 C 6,7 C 85 % 1005,7 hPa 0,0 l/m 2 min 0 min 0,5 UV-I 417 W/m 7,7 km/h (2 Bft)
23.03.2014 10:16 6,6 C 6,7 C 84 % 1005,7 hPa 0,0 l/m 0 min 0 min 0,0 UV-I 232 W/m 7,7 km/h (2 Bft)
23.03.2014 10:18 6,7 C 6,7 C 83 % 1005,7 hPa 0,0 l/m 0 min 0 min 0,0 UV-I 243 W/m 18,0 km/h (3 Bft)
23.03.2014 10:20 6,7 C 6,7 C 83 % 1005,8 hPa 0,0 l/m 0 min 0 min 0,0 UV-I 202 W/m 10,3 km/h (2 Bft)
23.03.2014 10:22 6,5 C 6,1 C 83 % 1005,7 hPa 0,0 l/m 0 min 0 min 0,0 UV-I 178 W/m 10,3 km/h (2 Bft)
23.03.2014 10:24 6,5 C 6,1 C 83 % 1005,7 hPa 0,0 l/m 0 min 0 min 0,0 UV-I 178 W/m 10,3 km/h (2 Bft)
23.03.2014 10:26 6,4 C 6,1 C 83 % 1005,8 hPa 0,0 l/m 0 min 0 min 0,0 UV-I 243 W/m 0,0 km/h (0 Bft)
23.03.2014 10:28 6,5 C 6,1 C 84 % 1005,8 hPa 0,0 l/m 0 min 0 min 0,0 UV-I 236 W/m 23,2 km/h (4 Bft)
23.03.2014 10:30 6,6 C 6,7 C 83 % 1005,8 hPa 0,0 l/m 0 min 0 min 0,5 UV-I 283 W/m 25,7 km/h (4 Bft)
23.03.2014 10:32 6,7 C 6,7 C 83 % 1005,8 hPa 0,0 l/m 2 min 0 min 0,6 UV-I 336 W/m 15,4 km/h (3 Bft)
23.03.2014 10:34 6,8 C 6,7 C 83 % 1005,8 hPa 0,0 l/m 2 min 0 min 0,8 UV-I 434 W/m 18,0 km/h (3 Bft)
23.03.2014 10:36 6,9 C 7,2 C 82 % 1005,8 hPa 0,0 l/m 2 min 0 min 1,0 UV-I 591 W/m 12,9 km/h (3 Bft)
23.03.2014 10:38 7,2 C 7,8 C 83 % 1005,8 hPa 0,0 l/m 2 min 0 min 0,7 UV-I 396 W/m 15,4 km/h (3 Bft)
23.03.2014 10:40 7,2 C 7,2 C 82 % 1005,9 hPa 0,0 l/m 2 min 0 min 0,7 UV-I 396 W/m 20,6 km/h (4 Bft)
23.03.2014 10:42 7,1 C 7,2 C 80 % 1005,9 hPa 0,0 l/m 0 min 0 min 0,7 UV-I 301 W/m 23,2 km/h (4 Bft)
23.03.2014 10:44 7,1 C 7,2 C 80 % 1005,9 hPa 0,0 l/m 2 min 0 min 1,0 UV-I 606 W/m 25,7 km/h (4 Bft)
23.03.2014 10:46 7,1 C 7,2 C 81 % 1005,9 hPa 0,0 l/m 2 min 0 min 1,3 UV-I 606 W/m 23,2 km/h (4 Bft)
23.03.2014 10:48 7,4 C 7,8 C 81 % 1005,8 hPa 0,0 l/m 2 min 0 min 1,3 UV-I 773 W/m 12,9 km/h (3 Bft)
23.03.2014 10:50 7,8 C 8,3 C 81 % 1005,8 hPa 0,0 l/m 2 min 0 min 1,3 UV-I 689 W/m 10,3 km/h (2 Bft)
23.03.2014 10:52 8,0 C 8,3 C 79 % 1005,8 hPa 0,0 l/m 2 min 0 min 1,2 UV-I 784 W/m 18,0 km/h (3 Bft)
23.03.2014 10:54 8,2 C 8,3 C 78 % 1005,8 hPa 0,0 l/m 0 min 0 min 0,0 UV-I 285 W/m 18,0 km/h (3 Bft)
23.03.2014 10:56 7,9 C 7,8 C 77 % 1005,8 hPa 0,0 l/m 0 min 0 min 0,0 UV-I 262 W/m 10,3 km/h (2 Bft)
23.03.2014 10:58 7,6 C 7,2 C 77 % 1005,8 hPa 0,0 l/m 0 min 0 min 0,0 UV-I 246 W/m 23,2 km/h (4 Bft)
23.03.2014 11:00 7,4 C 7,2 C 78 % 1005,9 hPa 0,0 l/m 0 min 0 min 0,0 UV-I 232 W/m 12,9 km/h (3 Bft)
23.03.2014 11:02 7,2 C 6,7 C 79 % 1005,8 hPa 0,0 l/m 0 min 0 min 0,0 UV-I 206 W/m 7,7 km/h (2 Bft)
23.03.2014 11:04 7,1 C 6,7 C 79 % 1005,8 hPa 0,0 l/m 0 min 0 min 0,5 UV-I 211 W/m 10,3 km/h (2 Bft)
23.03.2014 11:06 7,1 C 6,7 C 80 % 1005,8 hPa 0,0 l/m 0 min 0 min 0,5 UV-I 239 W/m 12,9 km/h (3 Bft)
23.03.2014 11:08 7,1 C 6,7 C 80 % 1005,8 hPa 0,0 l/m 2 min 0 min 1,1 UV-I 439 W/m 10,3 km/h (2 Bft)
23.03.2014 11:10 7,2 C 7,2 C 81 % 1005,8 hPa 0,0 l/m 0 min 0 min 0,8 UV-I 302 W/m 15,4 km/h (3 Bft)
23.03.2014 11:12 7,2 C 7,2 C 79 % 1005,8 hPa 0,0 l/m 0 min 0 min 0,5 UV-I 243 W/m 15,4 km/h (3 Bft)
23.03.2014 11:14 7,2 C 7,2 C 79 % 1005,8 hPa 0,0 l/m 0 min 0 min 1,0 UV-I 276 W/m 18,0 km/h (3 Bft)
23.03.2014 11:16 7,2 C 7,2 C 79 % 1005,8 hPa 0,0 l/m 0 min 0 min 1,4 UV-I 276 W/m 12,9 km/h (3 Bft)
23.03.2014 11:18 7,4 C 7,2 C 79 % 1005,7 hPa 0,0 l/m 0 min 0 min 1,5 UV-I 276 W/m 7,7 km/h (2 Bft)
23.03.2014 11:20 7,9 C 7,8 C 80 % 1005,7 hPa 0,0 l/m 2 min 0 min 0,8 UV-I 420 W/m 10,3 km/h (2 Bft)
23.03.2014 11:22 8,1 C 7,8 C 78 % 1005,8 hPa 0,0 l/m 2 min 0 min 0,0 UV-I 401 W/m 18,0 km/h (3 Bft)
23.03.2014 11:24 8,0 C 7,8 C 77 % 1005,8 hPa 0,0 l/m 0 min 0 min 0,0 UV-I 230 W/m 10,3 km/h (2 Bft)
23.03.2014 11:26 7,8 C 7,2 C 77 % 1005,8 hPa 0,0 l/m 0 min 0 min 0,0 UV-I 211 W/m 15,4 km/h (3 Bft)
23.03.2014 11:28 7,6 C 7,2 C 78 % 1005,8 hPa 0,0 l/m 0 min 0 min 0,0 UV-I 225 W/m 15,4 km/h (3 Bft)
23.03.2014 11:30 7,4 C 7,2 C 77 % 1005,8 hPa 0,0 l/m 0 min 0 min 0,0 UV-I 220 W/m 18,0 km/h (3 Bft)
23.03.2014 11:32 7,3 C 7,2 C 78 % 1005,8 hPa 0,0 l/m 0 min 0 min 0,0 UV-I 214 W/m 12,9 km/h (3 Bft)
23.03.2014 11:34 7,2 C 7,2 C 78 % 1005,8 hPa 0,0 l/m 0 min 0 min 0,0 UV-I 216 W/m 23,2 km/h (4 Bft)
23.03.2014 11:36 7,1 C 7,2 C 79 % 1005,7 hPa 0,0 l/m 0 min 0 min 0,0 UV-I 239 W/m 18,0 km/h (3 Bft)
23.03.2014 11:38 7,1 C 6,7 C 79 % 1005,7 hPa 0,0 l/m 0 min 0 min 0,0 UV-I 251 W/m 12,9 km/h (3 Bft)
23.03.2014 11:40 7,1 C 6,7 C 79 % 1005,8 hPa 0,0 l/m 0 min 0 min 0,0 UV-I 181 W/m 15,4 km/h (3 Bft)
23.03.2014 11:42 7,0 C 6,1 C 81 % 1005,8 hPa 0,0 l/m 0 min 2 min 0,0 UV-I 185 W/m 20,6 km/h (4 Bft)
23.03.2014 11:44 6,8 C 5,6 C 82 % 1005,9 hPa 0,0 l/m 0 min 2 min 0,0 UV-I 236 W/m 15,4 km/h (3 Bft)
23.03.2014 11:46 6,5 C 5,6 C 84 % 1005,8 hPa 0,0 l/m 0 min 2 min 0,5 UV-I 250 W/m 12,9 km/h (3 Bft)
23.03.2014 11:48 6,2 C 5,0 C 86 % 1005,8 hPa 0,0 l/m 0 min 2 min 0,6 UV-I 325 W/m 12,9 km/h (3 Bft)
23.03.2014 11:50 6,0 C 5,0 C 86 % 1005,8 hPa 0,0 l/m 2 min 2 min 0,9 UV-I 352 W/m 20,6 km/h (4 Bft)
23.03.2014 11:52 6,1 C 5,0 C 88 % 1005,8 hPa 0,0 l/m 2 min 0 min 1,2 UV-I 735 W/m 10,3 km/h (2 Bft)
23.03.2014 11:54 6,2 C 5,6 C 89 % 1005,8 hPa 0,0 l/m 2 min 0 min 0,9 UV-I 564 W/m 12,9 km/h (3 Bft)
23.03.2014 11:56 6,5 C 5,6 C 89 % 1005,8 hPa 0,0 l/m 2 min 0 min 0,7 UV-I 557 W/m 12,9 km/h (3 Bft)
23.03.2014 11:58 6,4 C 5,0 C 88 % 1005,7 hPa 0,0 l/m 2 min 0 min 0,7 UV-I 557 W/m 18,0 km/h (3 Bft)
23.03.2014 12:00 6,6 C 5,6 C 87 % 1005,8 hPa 0,0 l/m 2 min 0 min 0,6 UV-I 591 W/m 18,0 km/h (3 Bft)
23.03.2014 12:02 6,7 C 5,6 C 87 % 1005,8 hPa 0,0 l/m 2 min 0 min 0,6 UV-I 594 W/m 18,0 km/h (3 Bft)
23.03.2014 12:04 7,0 C 5,6 C 87 % 1005,8 hPa 0,0 l/m 2 min 0 min 0,6 UV-I 573 W/m 20,6 km/h (4 Bft)
23.03.2014 12:06 7,1 C 6,1 C 86 % 1005,7 hPa 0,0 l/m 2 min 0 min 0,6 UV-I 603 W/m 18,0 km/h (3 Bft)
23.03.2014 12:08 7,3 C 6,1 C 85 % 1005,7 hPa 0,0 l/m 2 min 0 min 0,6 UV-I 608 W/m 20,6 km/h (4 Bft)
23.03.2014 12:10 7,4 C 6,1 C 84 % 1005,7 hPa 0,0 l/m 2 min 0 min 0,6 UV-I 654 W/m 18,0 km/h (3 Bft)
23.03.2014 12:12 7,5 C 6,1 C 84 % 1005,7 hPa 0,0 l/m 2 min 0 min 0,7 UV-I 694 W/m 20,6 km/h (4 Bft)
23.03.2014 12:14 7,5 C 6,1 C 83 % 1005,7 hPa 0,0 l/m 2 min 0 min 0,8 UV-I 694 W/m 25,7 km/h (4 Bft)
23.03.2014 12:16 7,4 C 6,1 C 82 % 1005,7 hPa 0,0 l/m 2 min 0 min 0,8 UV-I 454 W/m 18,0 km/h (3 Bft)
23.03.2014 12:18 7,6 C 6,7 C 82 % 1005,7 hPa 0,0 l/m 2 min 0 min 0,8 UV-I 425 W/m 12,9 km/h (3 Bft)
23.03.2014 12:20 7,7 C 6,7 C 82 % 1005,9 hPa 0,0 l/m 2 min 0 min 0,8 UV-I 599 W/m 18,0 km/h (3 Bft)
23.03.2014 12:22 7,7 C 7,2 C 82 % 1005,8 hPa 0,0 l/m 0 min 0 min 0,8 UV-I 352 W/m 12,9 km/h (3 Bft)
23.03.2014 12:24 7,8 C 7,2 C 81 % 1005,9 hPa 0,0 l/m 2 min 0 min 0,8 UV-I 786 W/m 15,4 km/h (3 Bft)
23.03.2014 12:26 7,9 C 7,8 C 80 % 1005,8 hPa 0,0 l/m 2 min 0 min 0,8 UV-I 786 W/m 10,3 km/h (2 Bft)
23.03.2014 12:28 7,9 C 7,2 C 80 % 1005,8 hPa 0,0 l/m 2 min 0 min 0,8 UV-I 786 W/m 15,4 km/h (3 Bft)
23.03.2014 12:30 7,9 C 7,2 C 81 % 1005,8 hPa 0,0 l/m 0 min 0 min 0,6 UV-I 246 W/m 10,3 km/h (2 Bft)
23.03.2014 12:32 7,8 C 7,2 C 80 % 1005,8 hPa 0,0 l/m 0 min 0 min 0,5 UV-I 225 W/m 15,4 km/h (3 Bft)
23.03.2014 12:34 7,7 C 7,2 C 81 % 1005,9 hPa 0,0 l/m 0 min 0 min 0,0 UV-I 156 W/m 15,4 km/h (3 Bft)
23.03.2014 12:36 7,5 C 6,7 C 81 % 1006,0 hPa 0,0 l/m 0 min 0 min 0,0 UV-I 188 W/m 12,9 km/h (3 Bft)
23.03.2014 12:38 7,4 C 7,2 C 81 % 1005,9 hPa 0,0 l/m 0 min 0 min 0,8 UV-I 188 W/m 12,9 km/h (3 Bft)
23.03.2014 12:40 7,6 C 7,2 C 82 % 1006,0 hPa 0,0 l/m 0 min 0 min 0,8 UV-I 188 W/m 10,3 km/h (2 Bft)
23.03.2014 12:42 7,8 C 7,8 C 81 % 1005,9 hPa 0,0 l/m 2 min 0 min 0,9 UV-I 775 W/m 10,3 km/h (2 Bft)
23.03.2014 12:44 7,8 C 7,8 C 80 % 1006,0 hPa 0,0 l/m 0 min 0 min 0,5 UV-I 142 W/m 15,4 km/h (3 Bft)
23.03.2014 12:46 7,8 C 7,2 C 80 % 1006,0 hPa 0,0 l/m 0 min 0 min 0,0 UV-I 116 W/m 18,0 km/h (3 Bft)
23.03.2014 12:48 7,6 C 6,7 C 79 % 1006,0 hPa 0,0 l/m 0 min 0 min 0,0 UV-I 153 W/m 12,9 km/h (3 Bft)
23.03.2014 12:50 7,4 C 6,7 C 80 % 1006,0 hPa 0,0 l/m 0 min 0 min 0,5 UV-I 188 W/m 10,3 km/h (2 Bft)
23.03.2014 12:52 7,3 C 6,7 C 80 % 1006,1 hPa 0,0 l/m 0 min 0 min 0,5 UV-I 236 W/m 20,6 km/h (4 Bft)
23.03.2014 12:54 7,2 C 6,7 C 80 % 1006,1 hPa 0,0 l/m 0 min 0 min 0,7 UV-I 239 W/m 23,2 km/h (4 Bft)
23.03.2014 12:56 7,2 C 7,2 C 80 % 1006,1 hPa 0,0 l/m 2 min 0 min 0,8 UV-I 355 W/m 25,7 km/h (4 Bft)
23.03.2014 12:58 7,3 C 7,2 C 80 % 1006,1 hPa 0,0 l/m 0 min 0 min 0,7 UV-I 276 W/m 15,4 km/h (3 Bft)
23.03.2014 13:00 7,3 C 7,2 C 80 % 1006,1 hPa 0,0 l/m 0 min 0 min 0,6 UV-I 213 W/m 18,0 km/h (3 Bft)
23.03.2014 13:02 7,2 C 6,7 C 80 % 1006,2 hPa 0,0 l/m 0 min 0 min 0,6 UV-I 207 W/m 18,0 km/h (3 Bft)
23.03.2014 13:04 7,2 C 6,7 C 80 % 1006,1 hPa 0,0 l/m 0 min 0 min 0,6 UV-I 207 W/m 10,3 km/h (2 Bft)
23.03.2014 13:06 7,2 C 6,7 C 80 % 1006,1 hPa 0,0 l/m 0 min 0 min 0,7 UV-I 246 W/m 15,4 km/h (3 Bft)
23.03.2014 13:08 7,2 C 7,2 C 80 % 1006,1 hPa 0,0 l/m 0 min 0 min 0,8 UV-I 341 W/m 12,9 km/h (3 Bft)
23.03.2014 13:10 7,3 C 7,2 C 80 % 1006,1 hPa 0,0 l/m 0 min 0 min 0,8 UV-I 271 W/m 18,0 km/h (3 Bft)
23.03.2014 13:12 7,4 C 7,2 C 80 % 1006,1 hPa 0,0 l/m 0 min 0 min 0,5 UV-I 229 W/m 7,7 km/h (2 Bft)
23.03.2014 13:14 7,5 C 7,2 C 80 % 1006,1 hPa 0,0 l/m 0 min 0 min 0,5 UV-I 232 W/m 10,3 km/h (2 Bft)
23.03.2014 13:16 7,5 C 7,2 C 79 % 1006,1 hPa 0,0 l/m 0 min 0 min 0,5 UV-I 269 W/m 10,3 km/h (2 Bft)
23.03.2014 13:18 7,5 C 7,2 C 79 % 1006,2 hPa 0,0 l/m 0 min 0 min 0,6 UV-I 253 W/m 10,3 km/h (2 Bft)
23.03.2014 13:20 7,6 C 7,2 C 80 % 1006,2 hPa 0,0 l/m 0 min 0 min 0,6 UV-I 244 W/m 7,7 km/h (2 Bft)
23.03.2014 13:22 7,8 C 7,8 C 80 % 1006,2 hPa 0,0 l/m 0 min 0 min 1,1 UV-I 294 W/m 2,6 km/h (1 Bft)
23.03.2014 13:24 7,9 C 7,8 C 79 % 1006,2 hPa 0,0 l/m 0 min 0 min 0,6 UV-I 257 W/m 15,4 km/h (3 Bft)
23.03.2014 13:26 7,9 C 7,8 C 77 % 1006,2 hPa 0,0 l/m 0 min 0 min 0,5 UV-I 220 W/m 12,9 km/h (3 Bft)
23.03.2014 13:28 7,8 C 7,8 C 78 % 1006,2 hPa 0,0 l/m 0 min 0 min 0,5 UV-I 241 W/m 12,9 km/h (3 Bft)
23.03.2014 13:30 7,7 C 7,8 C 78 % 1006,3 hPa 0,0 l/m 0 min 0 min 0,5 UV-I 260 W/m 12,9 km/h (3 Bft)
23.03.2014 13:32 7,6 C 7,8 C 78 % 1006,3 hPa 0,0 l/m 0 min 0 min 0,5 UV-I 253 W/m 12,9 km/h (3 Bft)
23.03.2014 13:34 7,6 C 7,8 C 79 % 1006,3 hPa 0,0 l/m 0 min 0 min 0,5 UV-I 250 W/m 10,3 km/h (2 Bft)
23.03.2014 13:36 7,6 C 7,8 C 79 % 1006,3 hPa 0,0 l/m 0 min 0 min 0,0 UV-I 255 W/m 10,3 km/h (2 Bft)
23.03.2014 13:38 7,7 C 7,8 C 79 % 1006,3 hPa 0,0 l/m 0 min 0 min 0,0 UV-I 269 W/m 7,7 km/h (2 Bft)
23.03.2014 13:40 7,8 C 7,8 C 79 % 1006,2 hPa 0,0 l/m 0 min 0 min 0,5 UV-I 306 W/m 12,9 km/h (3 Bft)
23.03.2014 13:42 7,8 C 7,8 C 78 % 1006,3 hPa 0,0 l/m 0 min 0 min 0,6 UV-I 330 W/m 18,0 km/h (3 Bft)
23.03.2014 13:44 7,8 C 7,8 C 79 % 1006,3 hPa 0,0 l/m 0 min 0 min 0,6 UV-I 306 W/m 15,4 km/h (3 Bft)
23.03.2014 13:46 7,9 C 7,8 C 79 % 1006,3 hPa 0,0 l/m 0 min 0 min 0,0 UV-I 244 W/m 12,9 km/h (3 Bft)
23.03.2014 13:48 7,8 C 7,8 C 78 % 1006,3 hPa 0,0 l/m 0 min 0 min 0,0 UV-I 207 W/m 10,3 km/h (2 Bft)
23.03.2014 13:50 7,8 C 7,8 C 78 % 1006,3 hPa 0,0 l/m 0 min 0 min 0,0 UV-I 186 W/m 15,4 km/h (3 Bft)
23.03.2014 13:52 7,8 C 7,2 C 78 % 1006,3 hPa 0,0 l/m 0 min 0 min 0,0 UV-I 195 W/m 7,7 km/h (2 Bft)
23.03.2014 13:54 7,7 C 7,8 C 78 % 1006,3 hPa 0,0 l/m 0 min 0 min 0,0 UV-I 230 W/m 10,3 km/h (2 Bft)
23.03.2014 13:56 7,9 C 7,8 C 77 % 1006,3 hPa 0,0 l/m 0 min 0 min 0,5 UV-I 230 W/m 10,3 km/h (2 Bft)
23.03.2014 13:58 7,9 C 7,8 C 77 % 1006,2 hPa 0,0 l/m 0 min 0 min 0,0 UV-I 214 W/m 12,9 km/h (3 Bft)
23.03.2014 14:00 7,9 C 7,8 C 76 % 1006,1 hPa 0,0 l/m 0 min 0 min 0,0 UV-I 207 W/m 18,0 km/h (3 Bft)
23.03.2014 14:02 7,9 C 7,8 C 77 % 1006,2 hPa 0,0 l/m 0 min 0 min 0,0 UV-I 229 W/m 12,9 km/h (3 Bft)
23.03.2014 14:04 7,9 C 7,8 C 77 % 1006,2 hPa 0,0 l/m 0 min 0 min 0,5 UV-I 251 W/m 7,7 km/h (2 Bft)
23.03.2014 14:06 8,0 C 7,8 C 77 % 1006,2 hPa 0,0 l/m 0 min 0 min 0,5 UV-I 278 W/m 5,1 km/h (1 Bft)
23.03.2014 14:08 8,1 C 7,8 C 76 % 1006,1 hPa 0,0 l/m 0 min 0 min 0,5 UV-I 264 W/m 10,3 km/h (2 Bft)
23.03.2014 14:10 8,3 C 8,3 C 77 % 1006,1 hPa 0,0 l/m 2 min 0 min 0,9 UV-I 417 W/m 10,3 km/h (2 Bft)
23.03.2014 14:12 8,6 C 8,9 C 76 % 1006,1 hPa 0,0 l/m 2 min 0 min 1,0 UV-I 374 W/m 5,1 km/h (1 Bft)
23.03.2014 14:14 8,9 C 8,9 C 75 % 1006,1 hPa 0,0 l/m 2 min 0 min 0,7 UV-I 374 W/m 10,3 km/h (2 Bft)
23.03.2014 14:16 9,1 C 8,9 C 74 % 1006,1 hPa 0,0 l/m 2 min 0 min 0,6 UV-I 332 W/m 10,3 km/h (2 Bft)
23.03.2014 14:18 9,1 C 8,9 C 74 % 1006,1 hPa 0,0 l/m 2 min 0 min 0,7 UV-I 360 W/m 10,3 km/h (2 Bft)
23.03.2014 14:20 9,1 C 8,9 C 72 % 1006,1 hPa 0,0 l/m 2 min 0 min 0,7 UV-I 367 W/m 12,9 km/h (3 Bft)
23.03.2014 14:22 9,0 C 8,9 C 73 % 1006,2 hPa 0,0 l/m 0 min 0 min 0,6 UV-I 311 W/m 7,7 km/h (2 Bft)
23.03.2014 14:24 9,0 C 8,9 C 72 % 1006,1 hPa 0,0 l/m 2 min 0 min 0,8 UV-I 383 W/m 15,4 km/h (3 Bft)
23.03.2014 14:26 8,9 C 8,9 C 72 % 1006,1 hPa 0,0 l/m 2 min 0 min 0,8 UV-I 383 W/m 15,4 km/h (3 Bft)
23.03.2014 14:28 9,0 C 8,9 C 72 % 1006,1 hPa 0,0 l/m 2 min 0 min 1,0 UV-I 728 W/m 12,9 km/h (3 Bft)
23.03.2014 14:30 9,2 C 9,4 C 73 % 1006,1 hPa 0,0 l/m 0 min 0 min 0,5 UV-I 250 W/m 10,3 km/h (2 Bft)
23.03.2014 14:32 9,3 C 8,9 C 72 % 1006,1 hPa 0,0 l/m 0 min 0 min 0,0 UV-I 234 W/m 18,0 km/h (3 Bft)
23.03.2014 14:34 9,1 C 8,9 C 71 % 1006,1 hPa 0,0 l/m 0 min 0 min 0,0 UV-I 220 W/m 10,3 km/h (2 Bft)
23.03.2014 14:36 9,0 C 8,9 C 72 % 1006,0 hPa 0,0 l/m 0 min 0 min 0,0 UV-I 271 W/m 7,7 km/h (2 Bft)
23.03.2014 14:38 8,9 C 8,9 C 72 % 1006,1 hPa 0,0 l/m 0 min 0 min 0,0 UV-I 229 W/m 10,3 km/h (2 Bft)
23.03.2014 14:40 8,8 C 8,3 C 72 % 1006,0 hPa 0,0 l/m 0 min 0 min 0,0 UV-I 200 W/m 7,7 km/h (2 Bft)
23.03.2014 14:42 8,7 C 8,3 C 72 % 1005,9 hPa 0,0 l/m 0 min 0 min 0,0 UV-I 227 W/m 15,4 km/h (3 Bft)
23.03.2014 14:44 8,7 C 8,3 C 74 % 1006,0 hPa 0,0 l/m 0 min 2 min 0,5 UV-I 239 W/m 7,7 km/h (2 Bft)
23.03.2014 14:46 8,9 C 8,3 C 74 % 1005,9 hPa 0,0 l/m 0 min 0 min 0,6 UV-I 272 W/m 20,6 km/h (4 Bft)
23.03.2014 14:48 8,9 C 8,3 C 73 % 1005,9 hPa 0,0 l/m 0 min 0 min 0,5 UV-I 272 W/m 23,2 km/h (4 Bft)
23.03.2014 14:50 8,8 C 8,3 C 72 % 1005,9 hPa 0,0 l/m 0 min 0 min 0,5 UV-I 281 W/m 12,9 km/h (3 Bft)
23.03.2014 14:52 8,8 C 8,3 C 74 % 1005,9 hPa 0,0 l/m 2 min 0 min 0,7 UV-I 320 W/m 7,7 km/h (2 Bft)
23.03.2014 14:54 9,0 C 8,9 C 73 % 1006,1 hPa 0,0 l/m 2 min 0 min 0,9 UV-I 320 W/m 7,7 km/h (2 Bft)
23.03.2014 14:56 9,1 C 8,9 C 72 % 1006,0 hPa 0,0 l/m 0 min 0 min 0,0 UV-I 265 W/m 15,4 km/h (3 Bft)
23.03.2014 14:58 9,0 C 8,9 C 72 % 1006,1 hPa 0,0 l/m 2 min 0 min 0,9 UV-I 327 W/m 10,3 km/h (2 Bft)
23.03.2014 15:00 9,2 C 9,4 C 72 % 1006,0 hPa 0,0 l/m 2 min 0 min 1,0 UV-I 624 W/m 7,7 km/h (2 Bft)
23.03.2014 15:02 9,5 C 9,4 C 72 % 1006,0 hPa 0,0 l/m 2 min 0 min 0,9 UV-I 512 W/m 12,9 km/h (3 Bft)
23.03.2014 15:04 9,6 C 9,4 C 70 % 1006,0 hPa 0,0 l/m 0 min 0 min 0,0 UV-I 241 W/m 10,3 km/h (2 Bft)
23.03.2014 15:06 9,6 C 8,9 C 70 % 1006,1 hPa 0,0 l/m 0 min 0 min 0,0 UV-I 192 W/m 18,0 km/h (3 Bft)
23.03.2014 15:08 9,3 C 8,9 C 70 % 1006,1 hPa 0,0 l/m 2 min 0 min 0,8 UV-I 677 W/m 15,4 km/h (3 Bft)
23.03.2014 15:10 9,4 C 9,4 C 71 % 1006,1 hPa 0,0 l/m 2 min 0 min 0,7 UV-I 671 W/m 10,3 km/h (2 Bft)
23.03.2014 15:12 9,8 C 10,0 C 72 % 1006,1 hPa 0,0 l/m 2 min 0 min 0,8 UV-I 631 W/m 15,4 km/h (3 Bft)
23.03.2014 15:14 10,0 C 10,0 C 70 % 1006,1 hPa 0,0 l/m 2 min 0 min 0,6 UV-I 624 W/m 7,7 km/h (2 Bft)
23.03.2014 15:16 10,1 C 10,0 C 68 % 1006,1 hPa 0,0 l/m 2 min 0 min 0,8 UV-I 587 W/m 15,4 km/h (3 Bft)
23.03.2014 15:18 10,2 C 10,0 C 68 % 1006,1 hPa 0,0 l/m 2 min 0 min 0,7 UV-I 533 W/m 18,0 km/h (3 Bft)
23.03.2014 15:20 10,1 C 10,0 C 68 % 1006,1 hPa 0,0 l/m 2 min 0 min 0,7 UV-I 508 W/m 30,9 km/h (5 Bft)
23.03.2014 15:22 9,9 C 9,4 C 67 % 1006,1 hPa 0,0 l/m 2 min 0 min 0,0 UV-I 448 W/m 7,7 km/h (2 Bft)
23.03.2014 15:24 9,7 C 9,4 C 68 % 1006,1 hPa 0,0 l/m 2 min 0 min 0,0 UV-I 448 W/m 20,6 km/h (4 Bft)
23.03.2014 15:26 9,4 C 8,9 C 68 % 1006,2 hPa 0,0 l/m 0 min 0 min 0,0 UV-I 139 W/m 18,0 km/h (3 Bft)
23.03.2014 15:28 9,2 C 8,3 C 69 % 1006,1 hPa 0,0 l/m 0 min 0 min 0,0 UV-I 120 W/m 10,3 km/h (2 Bft)
23.03.2014 15:30 9,0 C 8,3 C 70 % 1006,1 hPa 0,0 l/m 0 min 0 min 0,0 UV-I 123 W/m 5,1 km/h (1 Bft)
23.03.2014 15:32 9,0 C 8,3 C 70 % 1006,1 hPa 0,0 l/m 0 min 0 min 0,0 UV-I 149 W/m 7,7 km/h (2 Bft)
23.03.2014 15:34 9,0 C 8,3 C 71 % 1006,2 hPa 0,0 l/m 0 min 0 min 0,0 UV-I 158 W/m 10,3 km/h (2 Bft)
23.03.2014 15:36 9,0 C 8,3 C 71 % 1006,2 hPa 0,0 l/m 0 min 0 min 0,0 UV-I 176 W/m 10,3 km/h (2 Bft)
23.03.2014 15:38 9,1 C 8,3 C 72 % 1006,2 hPa 0,0 l/m 0 min 0 min 0,0 UV-I 206 W/m 7,7 km/h (2 Bft)
23.03.2014 15:40 9,1 C 8,9 C 72 % 1006,2 hPa 0,0 l/m 0 min 0 min 0,0 UV-I 204 W/m 10,3 km/h (2 Bft)
23.03.2014 15:42 9,1 C 8,3 C 72 % 1006,3 hPa 0,0 l/m 0 min 0 min 0,0 UV-I 169 W/m 12,9 km/h (3 Bft)
23.03.2014 15:44 9,1 C 8,3 C 72 % 1006,4 hPa 0,0 l/m 0 min 0 min 0,0 UV-I 116 W/m 12,9 km/h (3 Bft)
23.03.2014 15:46 8,8 C 8,3 C 73 % 1006,4 hPa 0,0 l/m 0 min 0 min 0,0 UV-I 98 W/m 18,0 km/h (3 Bft)
23.03.2014 15:48 8,5 C 7,8 C 74 % 1006,5 hPa 0,0 l/m 0 min 0 min 0,0 UV-I 118 W/m 20,6 km/h (4 Bft)
23.03.2014 15:50 8,2 C 7,8 C 75 % 1006,5 hPa 0,0 l/m 0 min 0 min 0,0 UV-I 128 W/m 12,9 km/h (3 Bft)
23.03.2014 15:52 8,2 C 7,8 C 77 % 1006,5 hPa 0,0 l/m 0 min 0 min 0,0 UV-I 128 W/m 12,9 km/h (3 Bft)
23.03.2014 15:54 8,3 C 8,3 C 77 % 1006,6 hPa 0,0 l/m 2 min 2 min 0,0 UV-I 492 W/m 23,2 km/h (4 Bft)
23.03.2014 15:56 8,3 C 7,8 C 77 % 1006,6 hPa 0,0 l/m 0 min 0 min 0,0 UV-I 174 W/m 28,3 km/h (4 Bft)
23.03.2014 15:58 8,0 C 7,2 C 76 % 1006,6 hPa 0,0 l/m 0 min 0 min 0,0 UV-I 114 W/m 20,6 km/h (4 Bft)
23.03.2014 16:00 7,7 C 6,7 C 76 % 1006,6 hPa 0,0 l/m 0 min 0 min 0,0 UV-I 67 W/m 20,6 km/h (4 Bft)
23.03.2014 16:02 7,4 C 6,7 C 76 % 1006,7 hPa 0,0 l/m 0 min 0 min 0,0 UV-I 51 W/m 12,9 km/h (3 Bft)
23.03.2014 16:04 7,2 C 6,1 C 77 % 1006,8 hPa 0,0 l/m 0 min 0 min 0,0 UV-I 40 W/m 7,7 km/h (2 Bft)
23.03.2014 16:06 6,9 C 6,1 C 78 % 1006,8 hPa 0,0 l/m 0 min 0 min 0,0 UV-I 37 W/m 15,4 km/h (3 Bft)
23.03.2014 16:08 6,8 C 5,6 C 78 % 1006,8 hPa 0,0 l/m 0 min 0 min 0,0 UV-I 33 W/m 15,4 km/h (3 Bft)
23.03.2014 16:10 6,6 C 5,6 C 78 % 1006,8 hPa 0,0 l/m 0 min 0 min 0,0 UV-I 39 W/m 18,0 km/h (3 Bft)
23.03.2014 16:12 6,4 C 5,6 C 79 % 1006,8 hPa 0,0 l/m 0 min 0 min 0,0 UV-I 42 W/m 10,3 km/h (2 Bft)
23.03.2014 16:14 6,4 C 5,6 C 79 % 1006,8 hPa 0,0 l/m 0 min 0 min 0,0 UV-I 51 W/m 7,7 km/h (2 Bft)
23.03.2014 16:16 6,3 C 5,6 C 80 % 1006,9 hPa 0,0 l/m 0 min 0 min 0,0 UV-I 51 W/m 7,7 km/h (2 Bft)
23.03.2014 16:18 6,2 C 5,6 C 80 % 1006,9 hPa 0,0 l/m 0 min 0 min 0,0 UV-I 49 W/m 15,4 km/h (3 Bft)
23.03.2014 16:20 6,2 C 5,6 C 81 % 1006,9 hPa 0,0 l/m 0 min 2 min 0,0 UV-I 46 W/m 10,3 km/h (2 Bft)
23.03.2014 16:22 6,1 C 5,0 C 81 % 1006,9 hPa 0,0 l/m 0 min 2 min 0,0 UV-I 44 W/m 12,9 km/h (3 Bft)
23.03.2014 16:24 6,0 C 5,0 C 82 % 1007,0 hPa 0,0 l/m 0 min 2 min 0,0 UV-I 40 W/m 5,1 km/h (1 Bft)
23.03.2014 16:26 5,9 C 4,4 C 83 % 1006,9 hPa 0,2 l/m 0 min 2 min 0,0 UV-I 39 W/m 18,0 km/h (3 Bft)
23.03.2014 16:28 5,9 C 4,4 C 84 % 1007,0 hPa 0,0 l/m 0 min 2 min 0,0 UV-I 37 W/m 10,3 km/h (2 Bft)
23.03.2014 16:30 5,8 C 4,4 C 85 % 1007,0 hPa 0,0 l/m 0 min 2 min 0,0 UV-I 35 W/m 12,9 km/h (3 Bft)
23.03.2014 16:32 5,8 C 3,9 C 85 % 1007,0 hPa 0,0 l/m 0 min 2 min 0,0 UV-I 37 W/m 10,3 km/h (2 Bft)
23.03.2014 16:34 5,7 C 3,9 C 86 % 1007,1 hPa 0,0 l/m 0 min 0 min 0,0 UV-I 60 W/m 7,7 km/h (2 Bft)
23.03.2014 16:36 5,7 C 3,9 C 86 % 1007,1 hPa 0,0 l/m 0 min 0 min 0,0 UV-I 33 W/m 7,7 km/h (2 Bft)
23.03.2014 16:38 5,7 C 3,9 C 86 % 1007,2 hPa 0,0 l/m 0 min 0 min 0,0 UV-I 37 W/m 12,9 km/h (3 Bft)
23.03.2014 16:40 5,7 C 3,9 C 86 % 1007,1 hPa 0,0 l/m 0 min 0 min 0,0 UV-I 49 W/m 12,9 km/h (3 Bft)
23.03.2014 16:42 5,7 C 4,4 C 86 % 1007,1 hPa 0,0 l/m 0 min 0 min 0,0 UV-I 58 W/m 10,3 km/h (2 Bft)
23.03.2014 16:44 5,7 C 4,4 C 86 % 1007,1 hPa 0,0 l/m 0 min 0 min 0,0 UV-I 65 W/m 2,6 km/h (1 Bft)
23.03.2014 16:46 5,7 C 4,4 C 87 % 1007,0 hPa 0,0 l/m 0 min 0 min 0,0 UV-I 74 W/m 0,0 km/h (0 Bft)
23.03.2014 16:48 5,7 C 4,4 C 87 % 1007,0 hPa 0,0 l/m 0 min 0 min 0,0 UV-I 83 W/m 10,3 km/h (2 Bft)
23.03.2014 16:50 5,7 C 4,4 C 87 % 1007,1 hPa 0,0 l/m 0 min 0 min 0,0 UV-I 88 W/m 0,0 km/h (0 Bft)
23.03.2014 16:52 5,8 C 4,4 C 86 % 1007,1 hPa 0,0 l/m 0 min 0 min 0,0 UV-I 91 W/m 12,9 km/h (3 Bft)
23.03.2014 16:54 5,8 C 4,4 C 86 % 1006,9 hPa 0,0 l/m 0 min 0 min 0,0 UV-I 90 W/m 0,0 km/h (0 Bft)
23.03.2014 16:56 5,9 C 4,4 C 86 % 1006,9 hPa 0,0 l/m 0 min 0 min 0,0 UV-I 86 W/m 5,1 km/h (1 Bft)
23.03.2014 16:58 5,9 C 4,4 C 86 % 1006,9 hPa 0,0 l/m 0 min 0 min 0,0 UV-I 81 W/m 7,7 km/h (2 Bft)
23.03.2014 17:00 5,9 C 4,4 C 85 % 1006,8 hPa 0,0 l/m 0 min 0 min 0,0 UV-I 72 W/m 7,7 km/h (2 Bft)
23.03.2014 17:04 5,9 C 4,4 C 84 % 1006,8 hPa 0,0 l/m 0 min 0 min 0,0 UV-I 63 W/m 0,0 km/h (0 Bft)
23.03.2014 17:06 5,9 C 4,4 C 83 % 1006,8 hPa 0,0 l/m 0 min 0 min 0,0 UV-I 60 W/m 0,0 km/h (0 Bft)
23.03.2014 17:08 5,9 C 4,4 C 83 % 1006,7 hPa 0,0 l/m 0 min 0 min 0,0 UV-I 60 W/m 2,6 km/h (1 Bft)
23.03.2014 17:10 5,9 C 4,4 C 82 % 1006,7 hPa 0,0 l/m 0 min 0 min 0,0 UV-I 63 W/m 7,7 km/h (2 Bft)
23.03.2014 17:12 6,0 C 4,4 C 82 % 1006,8 hPa 0,0 l/m 0 min 0 min 0,0 UV-I 77 W/m 5,1 km/h (1 Bft)
23.03.2014 17:14 6,1 C 5,0 C 83 % 1006,9 hPa 0,0 l/m 0 min 0 min 0,0 UV-I 76 W/m 0,0 km/h (0 Bft)
23.03.2014 17:16 6,1 C 5,0 C 82 % 1006,8 hPa 0,0 l/m 0 min 0 min 0,0 UV-I 74 W/m 0,0 km/h (0 Bft)
23.03.2014 17:18 6,2 C 5,0 C 82 % 1006,8 hPa 0,0 l/m 0 min 0 min 0,0 UV-I 81 W/m 0,0 km/h (0 Bft)
23.03.2014 17:20 6,2 C 5,0 C 82 % 1006,9 hPa 0,0 l/m 0 min 0 min 0,0 UV-I 90 W/m 0,0 km/h (0 Bft)
23.03.2014 17:22 6,2 C 5,0 C 81 % 1007,0 hPa 0,0 l/m 0 min 0 min 0,0 UV-I 102 W/m 0,0 km/h (0 Bft)
23.03.2014 17:24 6,3 C 5,0 C 81 % 1007,1 hPa 0,0 l/m 0 min 0 min 0,0 UV-I 120 W/m 0,0 km/h (0 Bft)
23.03.2014 17:26 6,3 C 5,0 C 81 % 1007,1 hPa 0,0 l/m 2 min 0 min 0,0 UV-I 155 W/m 0,0 km/h (0 Bft)
23.03.2014 17:28 6,4 C 5,6 C 81 % 1007,1 hPa 0,0 l/m 2 min 0 min 0,0 UV-I 221 W/m 0,0 km/h (0 Bft)
23.03.2014 17:30 6,6 C 5,6 C 81 % 1007,1 hPa 0,0 l/m 2 min 0 min 0,0 UV-I 229 W/m 0,0 km/h (0 Bft)
23.03.2014 17:32 6,8 C 5,6 C 80 % 1007,1 hPa 0,0 l/m 2 min 0 min 0,0 UV-I 236 W/m 2,6 km/h (1 Bft)
23.03.2014 17:34 6,9 C 6,1 C 80 % 1007,1 hPa 0,0 l/m 2 min 0 min 0,0 UV-I 220 W/m 0,0 km/h (0 Bft)
23.03.2014 17:36 7,0 C 6,1 C 81 % 1007,2 hPa 0,0 l/m 2 min 0 min 0,0 UV-I 236 W/m 0,0 km/h (0 Bft)
23.03.2014 17:38 7,2 C 6,7 C 79 % 1007,2 hPa 0,0 l/m 2 min 0 min 0,0 UV-I 243 W/m 5,1 km/h (1 Bft)
23.03.2014 17:40 7,3 C 6,7 C 78 % 1007,2 hPa 0,0 l/m 2 min 0 min 0,0 UV-I 227 W/m 2,6 km/h (1 Bft)
23.03.2014 17:42 7,4 C 6,7 C 79 % 1007,2 hPa 0,0 l/m 2 min 0 min 0,0 UV-I 190 W/m 2,6 km/h (1 Bft)
23.03.2014 17:44 7,4 C 6,7 C 78 % 1007,2 hPa 0,0 l/m 2 min 0 min 0,0 UV-I 186 W/m 0,0 km/h (0 Bft)
23.03.2014 17:46 7,6 C 7,2 C 78 % 1007,2 hPa 0,0 l/m 2 min 0 min 0,0 UV-I 197 W/m 0,0 km/h (0 Bft)
23.03.2014 17:48 7,6 C 7,2 C 77 % 1007,2 hPa 0,0 l/m 2 min 0 min 0,0 UV-I 209 W/m 0,0 km/h (0 Bft)
23.03.2014 17:50 7,6 C 7,2 C 77 % 1007,2 hPa 0,0 l/m 2 min 0 min 0,0 UV-I 190 W/m 2,6 km/h (1 Bft)
23.03.2014 17:52 7,6 C 6,7 C 77 % 1007,2 hPa 0,0 l/m 2 min 0 min 0,0 UV-I 167 W/m 0,0 km/h (0 Bft)
23.03.2014 17:54 7,6 C 6,7 C 77 % 1007,2 hPa 0,0 l/m 2 min 0 min 0,0 UV-I 148 W/m 0,0 km/h (0 Bft)
23.03.2014 17:56 7,6 C 6,7 C 76 % 1007,2 hPa 0,0 l/m 2 min 0 min 0,0 UV-I 139 W/m 0,0 km/h (0 Bft)
23.03.2014 17:58 7,6 C 6,7 C 76 % 1007,2 hPa 0,0 l/m 2 min 0 min 0,0 UV-I 128 W/m 7,7 km/h (2 Bft)
23.03.2014 18:00 7,5 C 6,1 C 76 % 1007,2 hPa 0,0 l/m 2 min 0 min 0,0 UV-I 113 W/m 7,7 km/h (2 Bft)
23.03.2014 18:02 7,4 C 6,1 C 76 % 1007,2 hPa 0,0 l/m 2 min 0 min 0,0 UV-I 105 W/m 2,6 km/h (1 Bft)
23.03.2014 18:04 7,3 C 6,1 C 76 % 1007,3 hPa 0,0 l/m 2 min 0 min 0,0 UV-I 95 W/m 0,0 km/h (0 Bft)
23.03.2014 18:06 7,3 C 6,1 C 76 % 1007,3 hPa 0,0 l/m 2 min 0 min 0,0 UV-I 83 W/m 0,0 km/h (0 Bft)
23.03.2014 18:08 7,2 C 5,6 C 76 % 1007,4 hPa 0,0 l/m 2 min 0 min 0,0 UV-I 65 W/m 5,1 km/h (1 Bft)
23.03.2014 18:10 7,2 C 5,6 C 77 % 1007,3 hPa 0,0 l/m 2 min 0 min 0,0 UV-I 67 W/m 5,1 km/h (1 Bft)
23.03.2014 18:12 7,1 C 5,6 C 76 % 1007,3 hPa 0,0 l/m 2 min 0 min 0,0 UV-I 62 W/m 0,0 km/h (0 Bft)
23.03.2014 18:14 7,1 C 5,6 C 77 % 1007,3 hPa 0,0 l/m 2 min 0 min 0,0 UV-I 60 W/m 5,1 km/h (1 Bft)
23.03.2014 18:16 7,1 C 5,6 C 78 % 1007,3 hPa 0,0 l/m 0 min 0 min 0,0 UV-I 44 W/m 10,3 km/h (2 Bft)
23.03.2014 18:18 6,9 C 5,6 C 77 % 1007,3 hPa 0,0 l/m 0 min 0 min 0,0 UV-I 40 W/m 0,0 km/h (0 Bft)
23.03.2014 18:20 6,9 C 5,6 C 77 % 1007,3 hPa 0,0 l/m 0 min 0 min 0,0 UV-I 33 W/m 0,0 km/h (0 Bft)
23.03.2014 18:22 6,8 C 5,0 C 77 % 1007,3 hPa 0,0 l/m 0 min 0 min 0,0 UV-I 26 W/m 0,0 km/h (0 Bft)
23.03.2014 18:24 6,8 C 5,0 C 77 % 1007,3 hPa 0,0 l/m 0 min 0 min 0,0 UV-I 26 W/m 0,0 km/h (0 Bft)
23.03.2014 18:26 6,7 C 5,0 C 78 % 1007,3 hPa 0,0 l/m 0 min 0 min 0,0 UV-I 25 W/m 0,0 km/h (0 Bft)
23.03.2014 18:28 6,7 C 5,0 C 78 % 1007,3 hPa 0,0 l/m 0 min 0 min 0,0 UV-I 19 W/m 0,0 km/h (0 Bft)
23.03.2014 18:30 6,6 C 5,0 C 78 % 1007,3 hPa 0,0 l/m 0 min 0 min 0,0 UV-I 18 W/m 0,0 km/h (0 Bft)
23.03.2014 18:32 6,5 C 5,0 C 79 % 1007,3 hPa 0,0 l/m 0 min 0 min 0,0 UV-I 16 W/m 0,0 km/h (0 Bft)
23.03.2014 18:34 6,4 C 4,4 C 79 % 1007,3 hPa 0,0 l/m 0 min 0 min 0,0 UV-I 14 W/m 0,0 km/h (0 Bft)
23.03.2014 18:36 6,4 C 4,4 C 79 % 1007,3 hPa 0,0 l/m 0 min 0 min 0,0 UV-I 14 W/m 0,0 km/h (0 Bft)
23.03.2014 18:38 6,3 C 4,4 C 80 % 1007,3 hPa 0,0 l/m 0 min 0 min 0,0 UV-I 12 W/m 0,0 km/h (0 Bft)
23.03.2014 18:40 6,2 C 4,4 C 80 % 1007,3 hPa 0,0 l/m 0 min 0 min 0,0 UV-I 12 W/m 0,0 km/h (0 Bft)
23.03.2014 18:42 6,2 C 3,9 C 80 % 1007,3 hPa 0,0 l/m 0 min 0 min 0,0 UV-I 11 W/m 0,0 km/h (0 Bft)
23.03.2014 18:44 6,2 C 3,9 C 81 % 1007,3 hPa 0,0 l/m 0 min 0 min 0,0 UV-I 9 W/m 0,0 km/h (0 Bft)
23.03.2014 18:46 6,1 C 3,9 C 81 % 1007,3 hPa 0,0 l/m 0 min 0 min 0,0 UV-I 9 W/m 0,0 km/h (0 Bft)
23.03.2014 18:48 6,1 C 3,9 C 81 % 1007,4 hPa 0,0 l/m 0 min 0 min 0,0 UV-I 7 W/m 0,0 km/h (0 Bft)
23.03.2014 18:50 6,0 C 3,9 C 82 % 1007,5 hPa 0,0 l/m 0 min 0 min 0,0 UV-I 7 W/m 0,0 km/h (0 Bft)
23.03.2014 18:52 5,9 C 3,9 C 82 % 1007,5 hPa 0,0 l/m 0 min 0 min 0,0 UV-I 5 W/m 0,0 km/h (0 Bft)
23.03.2014 18:54 5,8 C 3,3 C 82 % 1007,5 hPa 0,0 l/m 0 min 0 min 0,0 UV-I 5 W/m 0,0 km/h (0 Bft)
23.03.2014 18:56 5,7 C 3,3 C 82 % 1007,6 hPa 0,0 l/m 0 min 0 min 0,0 UV-I 0 W/m 0,0 km/h (0 Bft)
23.03.2014 18:58 5,7 C 3,3 C 82 % 1007,6 hPa 0,0 l/m 0 min 0 min 0,0 UV-I 0 W/m 0,0 km/h (0 Bft)
23.03.2014 19:00 5,6 C 3,3 C 82 % 1007,7 hPa 0,0 l/m 0 min 0 min 0,0 UV-I 0 W/m 0,0 km/h (0 Bft)
23.03.2014 19:02 5,5 C 3,3 C 83 % 1007,7 hPa 0,0 l/m 0 min 0 min 0,0 UV-I 0 W/m 0,0 km/h (0 Bft)
23.03.2014 19:04 5,4 C 3,3 C 83 % 1007,8 hPa 0,0 l/m 0 min 0 min 0,0 UV-I 0 W/m 0,0 km/h (0 Bft)
23.03.2014 19:06 5,4 C 2,8 C 83 % 1007,8 hPa 0,0 l/m 0 min 0 min 0,0 UV-I 0 W/m 0,0 km/h (0 Bft)
23.03.2014 19:08 5,3 C 2,8 C 83 % 1007,8 hPa 0,0 l/m 0 min 0 min 0,0 UV-I 0 W/m 0,0 km/h (0 Bft)
23.03.2014 19:10 5,2 C 2,8 C 84 % 1007,8 hPa 0,0 l/m 0 min 0 min 0,0 UV-I 0 W/m 0,0 km/h (0 Bft)
23.03.2014 19:12 5,2 C 2,8 C 84 % 1007,8 hPa 0,0 l/m 0 min 0 min 0,0 UV-I 0 W/m 0,0 km/h (0 Bft)
23.03.2014 19:14 5,1 C 2,8 C 84 % 1007,8 hPa 0,0 l/m 0 min 0 min 0,0 UV-I 0 W/m 0,0 km/h (0 Bft)
23.03.2014 19:16 5,1 C 2,8 C 84 % 1007,9 hPa 0,0 l/m 0 min 0 min 0,0 UV-I 0 W/m 0,0 km/h (0 Bft)
23.03.2014 19:18 5,0 C 2,8 C 84 % 1007,9 hPa 0,0 l/m 0 min 0 min 0,0 UV-I 0 W/m 0,0 km/h (0 Bft)
23.03.2014 19:20 5,0 C 2,8 C 85 % 1007,9 hPa 0,0 l/m 0 min 0 min 0,0 UV-I 0 W/m 0,0 km/h (0 Bft)
23.03.2014 19:22 4,9 C 2,8 C 85 % 1007,9 hPa 0,0 l/m 0 min 0 min 0,0 UV-I 0 W/m 0,0 km/h (0 Bft)
23.03.2014 19:24 4,9 C 2,8 C 85 % 1008,0 hPa 0,0 l/m 0 min 0 min 0,0 UV-I 0 W/m 0,0 km/h (0 Bft)
23.03.2014 19:26 4,9 C 2,2 C 85 % 1008,0 hPa 0,0 l/m 0 min 0 min 0,0 UV-I 0 W/m 0,0 km/h (0 Bft)
23.03.2014 19:28 4,8 C 2,2 C 85 % 1008,0 hPa 0,0 l/m 0 min 0 min 0,0 UV-I 0 W/m 0,0 km/h (0 Bft)
23.03.2014 19:30 4,8 C 2,2 C 85 % 1008,0 hPa 0,0 l/m 0 min 0 min 0,0 UV-I 0 W/m 0,0 km/h (0 Bft)
23.03.2014 19:32 4,8 C 2,2 C 85 % 1008,1 hPa 0,0 l/m 0 min 0 min 0,0 UV-I 0 W/m 0,0 km/h (0 Bft)
23.03.2014 19:34 4,7 C 2,2 C 85 % 1008,1 hPa 0,0 l/m 0 min 0 min 0,0 UV-I 0 W/m 0,0 km/h (0 Bft)
23.03.2014 19:36 4,7 C 2,2 C 86 % 1008,0 hPa 0,0 l/m 0 min 0 min 0,0 UV-I 0 W/m 0,0 km/h (0 Bft)
23.03.2014 19:38 4,6 C 2,2 C 86 % 1008,0 hPa 0,0 l/m 0 min 0 min 0,0 UV-I 0 W/m 0,0 km/h (0 Bft)
23.03.2014 19:40 4,6 C 2,2 C 86 % 1008,0 hPa 0,0 l/m 0 min 0 min 0,0 UV-I 0 W/m 0,0 km/h (0 Bft)
23.03.2014 19:42 4,6 C 2,2 C 86 % 1008,0 hPa 0,0 l/m 0 min 0 min 0,0 UV-I 0 W/m 0,0 km/h (0 Bft)
23.03.2014 19:44 4,6 C 2,2 C 87 % 1008,0 hPa 0,0 l/m 0 min 0 min 0,0 UV-I 0 W/m 0,0 km/h (0 Bft)
23.03.2014 19:46 4,6 C 2,2 C 87 % 1008,1 hPa 0,0 l/m 0 min 0 min 0,0 UV-I 0 W/m 0,0 km/h (0 Bft)
23.03.2014 19:48 4,6 C 2,2 C 87 % 1008,1 hPa 0,0 l/m 0 min 0 min 0,0 UV-I 0 W/m 0,0 km/h (0 Bft)
23.03.2014 19:50 4,6 C 2,2 C 87 % 1008,1 hPa 0,0 l/m 0 min 0 min 0,0 UV-I 0 W/m 0,0 km/h (0 Bft)
23.03.2014 19:52 4,5 C 2,2 C 87 % 1008,1 hPa 0,0 l/m 0 min 0 min 0,0 UV-I 0 W/m 0,0 km/h (0 Bft)
23.03.2014 19:54 4,4 C 2,2 C 87 % 1008,1 hPa 0,0 l/m 0 min 0 min 0,0 UV-I 0 W/m 0,0 km/h (0 Bft)
23.03.2014 19:56 4,4 C 2,2 C 87 % 1008,1 hPa 0,0 l/m 0 min 0 min 0,0 UV-I 0 W/m 0,0 km/h (0 Bft)
23.03.2014 19:58 4,4 C 2,2 C 87 % 1008,1 hPa 0,0 l/m 0 min 0 min 0,0 UV-I 0 W/m 0,0 km/h (0 Bft)
23.03.2014 20:00 4,3 C 2,2 C 88 % 1008,2 hPa 0,0 l/m 0 min 0 min 0,0 UV-I 0 W/m 0,0 km/h (0 Bft)
23.03.2014 20:02 4,3 C 2,2 C 88 % 1008,2 hPa 0,0 l/m 0 min 0 min 0,0 UV-I 0 W/m 0,0 km/h (0 Bft)
23.03.2014 20:04 4,3 C 2,2 C 88 % 1008,3 hPa 0,0 l/m 0 min 0 min 0,0 UV-I 0 W/m 0,0 km/h (0 Bft)
23.03.2014 20:06 4,3 C 2,2 C 88 % 1008,3 hPa 0,0 l/m 0 min 0 min 0,0 UV-I 0 W/m 0,0 km/h (0 Bft)
23.03.2014 20:08 4,2 C 2,2 C 88 % 1008,3 hPa 0,0 l/m 0 min 0 min 0,0 UV-I 0 W/m 0,0 km/h (0 Bft)
23.03.2014 20:10 4,2 C 2,2 C 88 % 1008,3 hPa 0,0 l/m 0 min 0 min 0,0 UV-I 0 W/m 0,0 km/h (0 Bft)
23.03.2014 20:12 4,2 C 2,2 C 88 % 1008,4 hPa 0,0 l/m 0 min 0 min 0,0 UV-I 0 W/m 0,0 km/h (0 Bft)
23.03.2014 20:14 4,2 C 2,2 C 89 % 1008,5 hPa 0,0 l/m 0 min 0 min 0,0 UV-I 0 W/m 0,0 km/h (0 Bft)
23.03.2014 20:16 4,2 C 2,2 C 89 % 1008,5 hPa 0,0 l/m 0 min 0 min 0,0 UV-I 0 W/m 0,0 km/h (0 Bft)
23.03.2014 20:18 4,3 C 2,2 C 89 % 1008,5 hPa 0,0 l/m 0 min 0 min 0,0 UV-I 0 W/m 0,0 km/h (0 Bft)
23.03.2014 20:20 4,3 C 2,2 C 89 % 1008,5 hPa 0,0 l/m 0 min 0 min 0,0 UV-I 0 W/m 0,0 km/h (0 Bft)
23.03.2014 20:22 4,2 C 2,2 C 89 % 1008,5 hPa 0,0 l/m 0 min 0 min 0,0 UV-I 0 W/m 0,0 km/h (0 Bft)
23.03.2014 20:24 4,2 C 2,2 C 89 % 1008,5 hPa 0,0 l/m 0 min 0 min 0,0 UV-I 0 W/m 0,0 km/h (0 Bft)
23.03.2014 20:26 4,2 C 2,2 C 89 % 1008,5 hPa 0,0 l/m 0 min 0 min 0,0 UV-I 0 W/m 0,0 km/h (0 Bft)
23.03.2014 20:28 4,2 C 2,2 C 89 % 1008,5 hPa 0,0 l/m 0 min 0 min 0,0 UV-I 0 W/m 0,0 km/h (0 Bft)
23.03.2014 20:30 4,2 C 2,2 C 89 % 1008,5 hPa 0,0 l/m 0 min 0 min 0,0 UV-I 0 W/m 0,0 km/h (0 Bft)
23.03.2014 20:32 4,2 C 2,2 C 89 % 1008,5 hPa 0,0 l/m 0 min 0 min 0,0 UV-I 0 W/m 0,0 km/h (0 Bft)
23.03.2014 20:34 4,2 C 2,2 C 89 % 1008,5 hPa 0,0 l/m 0 min 0 min 0,0 UV-I 0 W/m 0,0 km/h (0 Bft)
23.03.2014 20:36 4,2 C 2,2 C 89 % 1008,5 hPa 0,0 l/m 0 min 0 min 0,0 UV-I 0 W/m 0,0 km/h (0 Bft)
23.03.2014 20:38 4,2 C 2,2 C 89 % 1008,5 hPa 0,0 l/m 0 min 0 min 0,0 UV-I 0 W/m 0,0 km/h (0 Bft)
23.03.2014 20:40 4,2 C 2,2 C 89 % 1008,6 hPa 0,0 l/m 0 min 0 min 0,0 UV-I 0 W/m 0,0 km/h (0 Bft)
23.03.2014 20:42 4,2 C 2,2 C 90 % 1008,6 hPa 0,0 l/m 0 min 0 min 0,0 UV-I 0 W/m 0,0 km/h (0 Bft)
23.03.2014 20:44 4,1 C 1,7 C 90 % 1008,7 hPa 0,0 l/m 0 min 0 min 0,0 UV-I 0 W/m 0,0 km/h (0 Bft)
23.03.2014 20:46 4,1 C 1,7 C 90 % 1008,7 hPa 0,0 l/m 0 min 0 min 0,0 UV-I 0 W/m 0,0 km/h (0 Bft)
23.03.2014 20:48 4,1 C 2,2 C 90 % 1008,6 hPa 0,0 l/m 0 min 0 min 0,0 UV-I 0 W/m 0,0 km/h (0 Bft)
23.03.2014 20:50 4,1 C 2,2 C 90 % 1008,6 hPa 0,0 l/m 0 min 0 min 0,0 UV-I 0 W/m 0,0 km/h (0 Bft)
23.03.2014 20:52 4,1 C 2,2 C 90 % 1008,7 hPa 0,0 l/m 0 min 0 min 0,0 UV-I 0 W/m 0,0 km/h (0 Bft)
23.03.2014 20:54 4,1 C 2,2 C 90 % 1008,8 hPa 0,0 l/m 0 min 0 min 0,0 UV-I 0 W/m 0,0 km/h (0 Bft)
23.03.2014 20:56 4,1 C 2,2 C 90 % 1008,7 hPa 0,0 l/m 0 min 0 min 0,0 UV-I 0 W/m 0,0 km/h (0 Bft)
23.03.2014 20:58 4,0 C 2,2 C 90 % 1008,7 hPa 0,0 l/m 0 min 0 min 0,0 UV-I 0 W/m 0,0 km/h (0 Bft)
23.03.2014 21:00 4,0 C 2,2 C 90 % 1008,8 hPa 0,0 l/m 0 min 0 min 0,0 UV-I 0 W/m 0,0 km/h (0 Bft)
23.03.2014 21:02 3,9 C 2,2 C 90 % 1008,8 hPa 0,0 l/m 0 min 0 min 0,0 UV-I 0 W/m 0,0 km/h (0 Bft)
23.03.2014 21:04 4,0 C 2,8 C 90 % 1008,8 hPa 0,0 l/m 0 min 0 min 0,0 UV-I 0 W/m 0,0 km/h (0 Bft)
23.03.2014 21:06 4,0 C 2,8 C 90 % 1008,8 hPa 0,0 l/m 0 min 0 min 0,0 UV-I 0 W/m 0,0 km/h (0 Bft)
23.03.2014 21:08 4,0 C 2,8 C 90 % 1008,7 hPa 0,0 l/m 0 min 0 min 0,0 UV-I 0 W/m 0,0 km/h (0 Bft)
23.03.2014 21:10 4,1 C 2,8 C 90 % 1008,7 hPa 0,0 l/m 0 min 0 min 0,0 UV-I 0 W/m 0,0 km/h (0 Bft)
23.03.2014 21:12 4,1 C 2,8 C 90 % 1008,8 hPa 0,0 l/m 0 min 0 min 0,0 UV-I 0 W/m 0,0 km/h (0 Bft)
23.03.2014 21:14 4,2 C 3,3 C 90 % 1008,7 hPa 0,0 l/m 0 min 0 min 0,0 UV-I 0 W/m 0,0 km/h (0 Bft)
23.03.2014 21:16 4,2 C 3,3 C 90 % 1008,7 hPa 0,0 l/m 0 min 0 min 0,0 UV-I 0 W/m 0,0 km/h (0 Bft)
23.03.2014 21:18 4,2 C 3,3 C 90 % 1008,8 hPa 0,0 l/m 0 min 0 min 0,0 UV-I 0 W/m 0,0 km/h (0 Bft)
23.03.2014 21:20 4,3 C 3,3 C 90 % 1008,8 hPa 0,0 l/m 0 min 0 min 0,0 UV-I 0 W/m 0,0 km/h (0 Bft)
23.03.2014 21:22 4,3 C 3,3 C 90 % 1008,8 hPa 0,0 l/m 0 min 0 min 0,0 UV-I 0 W/m 0,0 km/h (0 Bft)
23.03.2014 21:24 4,3 C 3,3 C 90 % 1008,8 hPa 0,0 l/m 0 min 0 min 0,0 UV-I 0 W/m 2,6 km/h (1 Bft)
23.03.2014 21:26 4,3 C 3,3 C 90 % 1008,8 hPa 0,0 l/m 0 min 0 min 0,0 UV-I 0 W/m 2,6 km/h (1 Bft)
23.03.2014 21:28 4,3 C 3,3 C 90 % 1008,9 hPa 0,0 l/m 0 min 0 min 0,0 UV-I 0 W/m 0,0 km/h (0 Bft)
23.03.2014 21:30 4,3 C 3,3 C 89 % 1008,8 hPa 0,0 l/m 0 min 0 min 0,0 UV-I 0 W/m 0,0 km/h (0 Bft)
23.03.2014 21:32 4,3 C 3,3 C 89 % 1008,8 hPa 0,0 l/m 0 min 0 min 0,0 UV-I 0 W/m 0,0 km/h (0 Bft)
23.03.2014 21:34 4,3 C 3,3 C 89 % 1008,9 hPa 0,0 l/m 0 min 0 min 0,0 UV-I 0 W/m 0,0 km/h (0 Bft)
23.03.2014 21:36 4,3 C 3,3 C 89 % 1008,9 hPa 0,0 l/m 0 min 0 min 0,0 UV-I 0 W/m 0,0 km/h (0 Bft)
23.03.2014 21:38 4,3 C 3,3 C 89 % 1008,9 hPa 0,0 l/m 0 min 0 min 0,0 UV-I 0 W/m 0,0 km/h (0 Bft)
23.03.2014 21:40 4,3 C 3,3 C 89 % 1008,9 hPa 0,0 l/m 0 min 0 min 0,0 UV-I 0 W/m 0,0 km/h (0 Bft)
23.03.2014 21:42 4,2 C 3,3 C 89 % 1008,9 hPa 0,0 l/m 0 min 0 min 0,0 UV-I 0 W/m 2,6 km/h (1 Bft)
23.03.2014 21:44 4,2 C 2,8 C 89 % 1008,9 hPa 0,0 l/m 0 min 0 min 0,0 UV-I 0 W/m 0,0 km/h (0 Bft)
23.03.2014 21:46 4,2 C 2,8 C 89 % 1008,9 hPa 0,0 l/m 0 min 0 min 0,0 UV-I 0 W/m 0,0 km/h (0 Bft)
23.03.2014 21:48 4,2 C 2,8 C 89 % 1008,8 hPa 0,0 l/m 0 min 0 min 0,0 UV-I 0 W/m 0,0 km/h (0 Bft)
23.03.2014 21:50 4,2 C 2,8 C 89 % 1008,8 hPa 0,0 l/m 0 min 0 min 0,0 UV-I 0 W/m 0,0 km/h (0 Bft)
23.03.2014 21:52 4,2 C 2,8 C 89 % 1008,8 hPa 0,0 l/m 0 min 0 min 0,0 UV-I 0 W/m 0,0 km/h (0 Bft)
23.03.2014 21:54 4,1 C 2,8 C 89 % 1008,9 hPa 0,0 l/m 0 min 0 min 0,0 UV-I 0 W/m 0,0 km/h (0 Bft)
23.03.2014 21:56 4,1 C 2,8 C 89 % 1008,8 hPa 0,0 l/m 0 min 0 min 0,0 UV-I 0 W/m 0,0 km/h (0 Bft)
23.03.2014 21:58 4,1 C 2,8 C 89 % 1008,9 hPa 0,0 l/m 0 min 0 min 0,0 UV-I 0 W/m 0,0 km/h (0 Bft)
23.03.2014 22:00 4,1 C 2,8 C 89 % 1008,9 hPa 0,0 l/m 0 min 0 min 0,0 UV-I 0 W/m 0,0 km/h (0 Bft)
23.03.2014 22:02 4,0 C 2,8 C 89 % 1008,9 hPa 0,0 l/m 0 min 0 min 0,0 UV-I 0 W/m 0,0 km/h (0 Bft)
23.03.2014 22:04 4,0 C 2,8 C 89 % 1008,9 hPa 0,0 l/m 0 min 0 min 0,0 UV-I 0 W/m 2,6 km/h (1 Bft)
23.03.2014 22:06 4,0 C 2,8 C 90 % 1009,0 hPa 0,0 l/m 0 min 0 min 0,0 UV-I 0 W/m 0,0 km/h (0 Bft)
23.03.2014 22:08 4,0 C 2,8 C 90 % 1009,0 hPa 0,0 l/m 0 min 0 min 0,0 UV-I 0 W/m 0,0 km/h (0 Bft)
23.03.2014 22:10 4,0 C 2,8 C 90 % 1009,0 hPa 0,0 l/m 0 min 0 min 0,0 UV-I 0 W/m 0,0 km/h (0 Bft)
23.03.2014 22:12 4,0 C 2,8 C 90 % 1009,0 hPa 0,0 l/m 0 min 0 min 0,0 UV-I 0 W/m 0,0 km/h (0 Bft)
23.03.2014 22:14 4,0 C 2,8 C 90 % 1009,1 hPa 0,0 l/m 0 min 0 min 0,0 UV-I 0 W/m 5,1 km/h (1 Bft)
23.03.2014 22:16 4,0 C 2,8 C 90 % 1009,1 hPa 0,0 l/m 0 min 0 min 0,0 UV-I 0 W/m 0,0 km/h (0 Bft)
23.03.2014 22:18 3,9 C 2,8 C 89 % 1009,2 hPa 0,0 l/m 0 min 0 min 0,0 UV-I 0 W/m 0,0 km/h (0 Bft)
23.03.2014 22:20 3,9 C 2,8 C 89 % 1009,2 hPa 0,0 l/m 0 min 0 min 0,0 UV-I 0 W/m 0,0 km/h (0 Bft)
23.03.2014 22:22 3,9 C 2,8 C 89 % 1009,1 hPa 0,0 l/m 0 min 0 min 0,0 UV-I 0 W/m 0,0 km/h (0 Bft)
23.03.2014 22:24 3,8 C 2,8 C 90 % 1009,1 hPa 0,0 l/m 0 min 0 min 0,0 UV-I 0 W/m 0,0 km/h (0 Bft)
23.03.2014 22:26 3,8 C 2,2 C 90 % 1009,1 hPa 0,0 l/m 0 min 0 min 0,0 UV-I 0 W/m 0,0 km/h (0 Bft)
23.03.2014 22:28 3,8 C 2,8 C 90 % 1009,1 hPa 0,0 l/m 0 min 0 min 0,0 UV-I 0 W/m 0,0 km/h (0 Bft)
23.03.2014 22:30 3,8 C 2,8 C 90 % 1009,1 hPa 0,0 l/m 0 min 0 min 0,0 UV-I 0 W/m 0,0 km/h (0 Bft)
23.03.2014 22:32 3,7 C 2,8 C 90 % 1009,2 hPa 0,0 l/m 0 min 0 min 0,0 UV-I 0 W/m 0,0 km/h (0 Bft)
23.03.2014 22:34 3,7 C 2,8 C 90 % 1009,2 hPa 0,0 l/m 0 min 0 min 0,0 UV-I 0 W/m 0,0 km/h (0 Bft)
23.03.2014 22:36 3,7 C 2,2 C 90 % 1009,2 hPa 0,0 l/m 0 min 0 min 0,0 UV-I 0 W/m 0,0 km/h (0 Bft)
23.03.2014 22:38 3,7 C 2,2 C 90 % 1009,3 hPa 0,0 l/m 0 min 0 min 0,0 UV-I 0 W/m 0,0 km/h (0 Bft)
23.03.2014 22:40 3,7 C 2,2 C 90 % 1009,2 hPa 0,0 l/m 0 min 0 min 0,0 UV-I 0 W/m 0,0 km/h (0 Bft)
23.03.2014 22:42 3,6 C 2,2 C 90 % 1009,2 hPa 0,0 l/m 0 min 0 min 0,0 UV-I 0 W/m 0,0 km/h (0 Bft)
23.03.2014 22:44 3,6 C 2,2 C 90 % 1009,2 hPa 0,0 l/m 0 min 0 min 0,0 UV-I 0 W/m 0,0 km/h (0 Bft)
23.03.2014 22:46 3,6 C 2,2 C 90 % 1009,3 hPa 0,0 l/m 0 min 0 min 0,0 UV-I 0 W/m 0,0 km/h (0 Bft)
23.03.2014 22:48 3,5 C 2,2 C 90 % 1009,3 hPa 0,0 l/m 0 min 0 min 0,0 UV-I 0 W/m 0,0 km/h (0 Bft)
23.03.2014 22:50 3,4 C 2,2 C 90 % 1009,3 hPa 0,0 l/m 0 min 0 min 0,0 UV-I 0 W/m 0,0 km/h (0 Bft)
23.03.2014 22:52 3,4 C 2,2 C 90 % 1009,3 hPa 0,0 l/m 0 min 0 min 0,0 UV-I 0 W/m 0,0 km/h (0 Bft)
23.03.2014 22:54 3,4 C 2,2 C 90 % 1009,3 hPa 0,0 l/m 0 min 0 min 0,0 UV-I 0 W/m 0,0 km/h (0 Bft)
23.03.2014 22:56 3,4 C 2,2 C 91 % 1009,3 hPa 0,0 l/m 0 min 0 min 0,0 UV-I 0 W/m 0,0 km/h (0 Bft)
23.03.2014 22:58 3,4 C 2,2 C 91 % 1009,3 hPa 0,0 l/m 0 min 0 min 0,0 UV-I 0 W/m 0,0 km/h (0 Bft)
23.03.2014 23:00 3,4 C 2,2 C 91 % 1009,3 hPa 0,0 l/m 0 min 0 min 0,0 UV-I 0 W/m 0,0 km/h (0 Bft)
23.03.2014 23:02 3,3 C 2,2 C 91 % 1009,4 hPa 0,0 l/m 0 min 0 min 0,0 UV-I 0 W/m 0,0 km/h (0 Bft)
23.03.2014 23:04 3,3 C 1,7 C 91 % 1009,4 hPa 0,0 l/m 0 min 0 min 0,0 UV-I 0 W/m 0,0 km/h (0 Bft)
23.03.2014 23:06 3,3 C 1,7 C 91 % 1009,4 hPa 0,0 l/m 0 min 0 min 0,0 UV-I 0 W/m 0,0 km/h (0 Bft)
23.03.2014 23:08 3,3 C 1,7 C 91 % 1009,4 hPa 0,0 l/m 0 min 0 min 0,0 UV-I 0 W/m 0,0 km/h (0 Bft)
23.03.2014 23:10 3,3 C 1,7 C 91 % 1009,4 hPa 0,0 l/m 0 min 0 min 0,0 UV-I 0 W/m 0,0 km/h (0 Bft)
23.03.2014 23:12 3,3 C 2,2 C 91 % 1009,4 hPa 0,0 l/m 0 min 0 min 0,0 UV-I 0 W/m 0,0 km/h (0 Bft)
23.03.2014 23:14 3,3 C 2,2 C 91 % 1009,4 hPa 0,0 l/m 0 min 0 min 0,0 UV-I 0 W/m 0,0 km/h (0 Bft)
23.03.2014 23:16 3,3 C 2,2 C 91 % 1009,3 hPa 0,0 l/m 0 min 0 min 0,0 UV-I 0 W/m 0,0 km/h (0 Bft)
23.03.2014 23:18 3,2 C 2,2 C 91 % 1009,4 hPa 0,0 l/m 0 min 0 min 0,0 UV-I 0 W/m 0,0 km/h (0 Bft)
23.03.2014 23:20 3,2 C 2,2 C 91 % 1009,4 hPa 0,0 l/m 0 min 0 min 0,0 UV-I 0 W/m 0,0 km/h (0 Bft)
23.03.2014 23:22 3,2 C 2,2 C 91 % 1009,4 hPa 0,0 l/m 0 min 0 min 0,0 UV-I 0 W/m 0,0 km/h (0 Bft)
23.03.2014 23:24 3,2 C 2,2 C 92 % 1009,3 hPa 0,0 l/m 0 min 0 min 0,0 UV-I 0 W/m 0,0 km/h (0 Bft)
23.03.2014 23:26 3,2 C 2,2 C 92 % 1009,4 hPa 0,0 l/m 0 min 0 min 0,0 UV-I 0 W/m 0,0 km/h (0 Bft)
23.03.2014 23:28 3,2 C 2,2 C 92 % 1009,4 hPa 0,0 l/m 0 min 0 min 0,0 UV-I 0 W/m 0,0 km/h (0 Bft)
23.03.2014 23:30 3,2 C 2,2 C 92 % 1009,4 hPa 0,0 l/m 0 min 0 min 0,0 UV-I 0 W/m 0,0 km/h (0 Bft)
23.03.2014 23:32 3,2 C 2,2 C 92 % 1009,4 hPa 0,0 l/m 0 min 0 min 0,0 UV-I 0 W/m 0,0 km/h (0 Bft)
23.03.2014 23:34 3,2 C 2,2 C 92 % 1009,4 hPa 0,0 l/m 0 min 0 min 0,0 UV-I 0 W/m 0,0 km/h (0 Bft)
23.03.2014 23:36 3,2 C 2,2 C 92 % 1009,4 hPa 0,0 l/m 0 min 0 min 0,0 UV-I 0 W/m 0,0 km/h (0 Bft)
23.03.2014 23:38 3,2 C 2,2 C 92 % 1009,4 hPa 0,0 l/m 0 min 0 min 0,0 UV-I 0 W/m 0,0 km/h (0 Bft)
23.03.2014 23:40 3,2 C 2,2 C 92 % 1009,4 hPa 0,0 l/m 0 min 0 min 0,0 UV-I 0 W/m 0,0 km/h (0 Bft)
23.03.2014 23:42 3,2 C 2,2 C 92 % 1009,4 hPa 0,0 l/m 0 min 0 min 0,0 UV-I 0 W/m 0,0 km/h (0 Bft)
23.03.2014 23:44 3,3 C 2,2 C 92 % 1009,4 hPa 0,0 l/m 0 min 0 min 0,0 UV-I 0 W/m 0,0 km/h (0 Bft)
23.03.2014 23:46 3,3 C 2,2 C 92 % 1009,5 hPa 0,0 l/m 0 min 0 min 0,0 UV-I 0 W/m 0,0 km/h (0 Bft)
23.03.2014 23:48 3,3 C 2,2 C 92 % 1009,5 hPa 0,0 l/m 0 min 0 min 0,0 UV-I 0 W/m 0,0 km/h (0 Bft)
23.03.2014 23:50 3,3 C 2,2 C 92 % 1009,5 hPa 0,0 l/m 0 min 0 min 0,0 UV-I 0 W/m 0,0 km/h (0 Bft)
23.03.2014 23:52 3,3 C 2,2 C 92 % 1009,5 hPa 0,0 l/m 0 min 0 min 0,0 UV-I 0 W/m 0,0 km/h (0 Bft)
23.03.2014 23:54 3,3 C 2,2 C 92 % 1009,6 hPa 0,0 l/m 0 min 0 min 0,0 UV-I 0 W/m 0,0 km/h (0 Bft)
23.03.2014 23:56 3,3 C 2,2 C 92 % 1009,6 hPa 0,0 l/m 0 min 0 min 0,0 UV-I 0 W/m 0,0 km/h (0 Bft)
23.03.2014 23:58 3,3 C 2,2 C 92 % 1009,6 hPa 0,0 l/m 0 min 0 min 0,0 UV-I 0 W/m 0,0 km/h (0 Bft)
_ Min-Zeit 23:16 20:44 15:22 03:44 - - - - - 00:00
Minimum _ 3,2 C 1,7 C 67 % 1002,9 hPa - - - - - 0,0 km/h (0 Bft)
_ Max-Zeit 15:18 15:12 00:00 23:54 16:26 07:38 11:42 11:18 12:24 09:22
Maximum _ 10,2 C 10,0 C 95 % 1009,6 hPa 0,2 l/m 2 min 2 min 1,5 UV-I 786 W/m 33,5 km/h
SW (5 Bft)
Durchschnitt _ 5,4 C 4,2 C 86 % 1005,9 hPa #0,2 l/m #3:46 h #28 min. 0,7 UV-I 214 W/m 7,1 km/h (2 Bft)
© 2014 W. Hausmann